<?xml version="1.0" encoding="UTF-8" standalone="no" ?>
<gpx xmlns="http://www.topografix.com/GPX/1/1" xmlns:xsi="http://www.w3.org/2001/XMLSchema-instance" xsi:schemaLocation="http://www.topografix.com/GPX/1/1 http://www.topografix.com/GPX/1/1/gpx.xsd" version="1.1" creator="VisuGPX - https://www.visugpx.com">
  <metadata>
    <name>2025 01-27-46-ESCLAUZELS </name>
    <desc><![CDATA[Randonnée de 11 km pour environ 300 m de dénivelé positif cumulé sur une succession de montées et descentes comme souvent dans notre département. un peu de patrimoine, de belles vues et de beaux chemins bordés de murs de pierres sèches vous attendent sur ce parcours]]></desc>
  </metadata>
  <trk>
    <name><![CDATA[ESCLAUZELS BOB 5 JAN 2025]]></name>
    <extensions>
      <line xmlns="http://www.topografix.com/GPX/gpx_style/0/2">
        <color>0000FF</color>
        <width>4</width>
      </line>
    </extensions>
    <trkseg>
      <trkpt lat="44.42198" lon="1.62005">
        <ele>300.07</ele>
        <time>2025-01-05T12:16:40Z</time>
      </trkpt>
      <trkpt lat="44.42205" lon="1.61998">
        <ele>298.63</ele>
        <time>2025-01-05T12:16:53Z</time>
      </trkpt>
      <trkpt lat="44.42209" lon="1.61995">
        <ele>297.67</ele>
        <time>2025-01-05T12:17:00Z</time>
      </trkpt>
      <trkpt lat="44.4222" lon="1.61989">
        <ele>297.18</ele>
        <time>2025-01-05T12:17:12Z</time>
      </trkpt>
      <trkpt lat="44.4223" lon="1.61985">
        <ele>296.7</ele>
        <time>2025-01-05T12:17:22Z</time>
      </trkpt>
      <trkpt lat="44.42241" lon="1.6198">
        <ele>295.74</ele>
        <time>2025-01-05T12:17:31Z</time>
      </trkpt>
      <trkpt lat="44.4225" lon="1.61977">
        <ele>295.26</ele>
        <time>2025-01-05T12:17:39Z</time>
      </trkpt>
      <trkpt lat="44.42259" lon="1.61975">
        <ele>294.78</ele>
        <time>2025-01-05T12:17:46Z</time>
      </trkpt>
      <trkpt lat="44.42268" lon="1.61971">
        <ele>294.3</ele>
        <time>2025-01-05T12:17:53Z</time>
      </trkpt>
      <trkpt lat="44.42276" lon="1.61965">
        <ele>293.34</ele>
        <time>2025-01-05T12:18:01Z</time>
      </trkpt>
      <trkpt lat="44.42283" lon="1.61957">
        <ele>292.38</ele>
        <time>2025-01-05T12:18:09Z</time>
      </trkpt>
      <trkpt lat="44.42291" lon="1.61949">
        <ele>291.9</ele>
        <time>2025-01-05T12:18:18Z</time>
      </trkpt>
      <trkpt lat="44.42299" lon="1.6194">
        <ele>290.94</ele>
        <time>2025-01-05T12:18:27Z</time>
      </trkpt>
      <trkpt lat="44.42306" lon="1.61928">
        <ele>289.97</ele>
        <time>2025-01-05T12:18:35Z</time>
      </trkpt>
      <trkpt lat="44.42312" lon="1.61916">
        <ele>289.49</ele>
        <time>2025-01-05T12:18:42Z</time>
      </trkpt>
      <trkpt lat="44.42318" lon="1.61905">
        <ele>288.53</ele>
        <time>2025-01-05T12:18:50Z</time>
      </trkpt>
      <trkpt lat="44.42324" lon="1.61893">
        <ele>288.05</ele>
        <time>2025-01-05T12:18:58Z</time>
      </trkpt>
      <trkpt lat="44.4233" lon="1.6188">
        <ele>287.09</ele>
        <time>2025-01-05T12:19:06Z</time>
      </trkpt>
      <trkpt lat="44.42334" lon="1.61868">
        <ele>286.61</ele>
        <time>2025-01-05T12:19:13Z</time>
      </trkpt>
      <trkpt lat="44.42339" lon="1.61856">
        <ele>285.65</ele>
        <time>2025-01-05T12:19:20Z</time>
      </trkpt>
      <trkpt lat="44.42343" lon="1.61845">
        <ele>284.69</ele>
        <time>2025-01-05T12:19:27Z</time>
      </trkpt>
      <trkpt lat="44.42348" lon="1.6183">
        <ele>284.21</ele>
        <time>2025-01-05T12:19:35Z</time>
      </trkpt>
      <trkpt lat="44.42351" lon="1.61817">
        <ele>284.21</ele>
        <time>2025-01-05T12:19:43Z</time>
      </trkpt>
      <trkpt lat="44.42353" lon="1.61802">
        <ele>283.25</ele>
        <time>2025-01-05T12:19:51Z</time>
      </trkpt>
      <trkpt lat="44.42355" lon="1.61787">
        <ele>282.77</ele>
        <time>2025-01-05T12:19:59Z</time>
      </trkpt>
      <trkpt lat="44.42355" lon="1.61775">
        <ele>282.28</ele>
        <time>2025-01-05T12:20:06Z</time>
      </trkpt>
      <trkpt lat="44.42353" lon="1.6176">
        <ele>281.32</ele>
        <time>2025-01-05T12:20:14Z</time>
      </trkpt>
      <trkpt lat="44.42351" lon="1.61747">
        <ele>280.84</ele>
        <time>2025-01-05T12:20:22Z</time>
      </trkpt>
      <trkpt lat="44.42349" lon="1.61733">
        <ele>280.36</ele>
        <time>2025-01-05T12:20:31Z</time>
      </trkpt>
      <trkpt lat="44.42352" lon="1.6172">
        <ele>278.92</ele>
        <time>2025-01-05T12:20:39Z</time>
      </trkpt>
      <trkpt lat="44.42355" lon="1.61708">
        <ele>278.44</ele>
        <time>2025-01-05T12:20:47Z</time>
      </trkpt>
      <trkpt lat="44.42362" lon="1.61697">
        <ele>277</ele>
        <time>2025-01-05T12:20:55Z</time>
      </trkpt>
      <trkpt lat="44.42371" lon="1.6169">
        <ele>276.52</ele>
        <time>2025-01-05T12:21:03Z</time>
      </trkpt>
      <trkpt lat="44.4238" lon="1.61682">
        <ele>276.04</ele>
        <time>2025-01-05T12:21:11Z</time>
      </trkpt>
      <trkpt lat="44.42388" lon="1.61675">
        <ele>275.56</ele>
        <time>2025-01-05T12:21:19Z</time>
      </trkpt>
      <trkpt lat="44.42395" lon="1.61662">
        <ele>275.56</ele>
        <time>2025-01-05T12:21:27Z</time>
      </trkpt>
      <trkpt lat="44.42397" lon="1.61648">
        <ele>275.56</ele>
        <time>2025-01-05T12:21:35Z</time>
      </trkpt>
      <trkpt lat="44.42394" lon="1.61634">
        <ele>275.07</ele>
        <time>2025-01-05T12:21:43Z</time>
      </trkpt>
      <trkpt lat="44.42386" lon="1.61625">
        <ele>275.07</ele>
        <time>2025-01-05T12:21:51Z</time>
      </trkpt>
      <trkpt lat="44.42377" lon="1.61617">
        <ele>275.07</ele>
        <time>2025-01-05T12:21:59Z</time>
      </trkpt>
      <trkpt lat="44.42368" lon="1.61608">
        <ele>275.07</ele>
        <time>2025-01-05T12:22:07Z</time>
      </trkpt>
      <trkpt lat="44.42371" lon="1.61598">
        <ele>275.07</ele>
        <time>2025-01-05T12:22:17Z</time>
      </trkpt>
      <trkpt lat="44.42381" lon="1.6159">
        <ele>279.4</ele>
        <time>2025-01-05T12:22:34Z</time>
      </trkpt>
      <trkpt lat="44.42383" lon="1.61571">
        <ele>281.8</ele>
        <time>2025-01-05T12:22:48Z</time>
      </trkpt>
      <trkpt lat="44.42385" lon="1.61558">
        <ele>283.25</ele>
        <time>2025-01-05T12:23:00Z</time>
      </trkpt>
      <trkpt lat="44.42387" lon="1.61541">
        <ele>285.17</ele>
        <time>2025-01-05T12:23:13Z</time>
      </trkpt>
      <trkpt lat="44.42388" lon="1.61525">
        <ele>287.09</ele>
        <time>2025-01-05T12:23:26Z</time>
      </trkpt>
      <trkpt lat="44.42391" lon="1.6151">
        <ele>288.53</ele>
        <time>2025-01-05T12:23:38Z</time>
      </trkpt>
      <trkpt lat="44.42393" lon="1.61494">
        <ele>289.49</ele>
        <time>2025-01-05T12:23:51Z</time>
      </trkpt>
      <trkpt lat="44.42397" lon="1.61477">
        <ele>290.46</ele>
        <time>2025-01-05T12:24:03Z</time>
      </trkpt>
      <trkpt lat="44.42398" lon="1.61471">
        <ele>291.42</ele>
        <time>2025-01-05T12:24:16Z</time>
      </trkpt>
      <trkpt lat="44.42398" lon="1.61456">
        <ele>291.42</ele>
        <time>2025-01-05T12:24:27Z</time>
      </trkpt>
      <trkpt lat="44.42396" lon="1.61431">
        <ele>292.86</ele>
        <time>2025-01-05T12:24:46Z</time>
      </trkpt>
      <trkpt lat="44.42394" lon="1.61411">
        <ele>295.26</ele>
        <time>2025-01-05T12:25:03Z</time>
      </trkpt>
      <trkpt lat="44.42391" lon="1.61395">
        <ele>297.18</ele>
        <time>2025-01-05T12:25:18Z</time>
      </trkpt>
      <trkpt lat="44.42392" lon="1.61378">
        <ele>299.59</ele>
        <time>2025-01-05T12:25:34Z</time>
      </trkpt>
      <trkpt lat="44.42392" lon="1.61359">
        <ele>300.55</ele>
        <time>2025-01-05T12:25:52Z</time>
      </trkpt>
      <trkpt lat="44.42396" lon="1.61343">
        <ele>301.51</ele>
        <time>2025-01-05T12:26:04Z</time>
      </trkpt>
      <trkpt lat="44.42403" lon="1.6133">
        <ele>301.99</ele>
        <time>2025-01-05T12:26:16Z</time>
      </trkpt>
      <trkpt lat="44.42409" lon="1.61317">
        <ele>302.47</ele>
        <time>2025-01-05T12:26:29Z</time>
      </trkpt>
      <trkpt lat="44.42413" lon="1.613">
        <ele>302.95</ele>
        <time>2025-01-05T12:26:43Z</time>
      </trkpt>
      <trkpt lat="44.42414" lon="1.61285">
        <ele>302.95</ele>
        <time>2025-01-05T12:26:53Z</time>
      </trkpt>
      <trkpt lat="44.42415" lon="1.6127">
        <ele>302.95</ele>
        <time>2025-01-05T12:27:02Z</time>
      </trkpt>
      <trkpt lat="44.42417" lon="1.61256">
        <ele>302.47</ele>
        <time>2025-01-05T12:27:12Z</time>
      </trkpt>
      <trkpt lat="44.42421" lon="1.61241">
        <ele>301.51</ele>
        <time>2025-01-05T12:27:23Z</time>
      </trkpt>
      <trkpt lat="44.42424" lon="1.61223">
        <ele>300.07</ele>
        <time>2025-01-05T12:27:36Z</time>
      </trkpt>
      <trkpt lat="44.42432" lon="1.612">
        <ele>299.11</ele>
        <time>2025-01-05T12:27:50Z</time>
      </trkpt>
      <trkpt lat="44.42433" lon="1.61183">
        <ele>298.15</ele>
        <time>2025-01-05T12:28:02Z</time>
      </trkpt>
      <trkpt lat="44.42437" lon="1.61163">
        <ele>297.18</ele>
        <time>2025-01-05T12:28:14Z</time>
      </trkpt>
      <trkpt lat="44.42437" lon="1.61146">
        <ele>296.7</ele>
        <time>2025-01-05T12:28:25Z</time>
      </trkpt>
      <trkpt lat="44.42439" lon="1.61129">
        <ele>296.22</ele>
        <time>2025-01-05T12:28:36Z</time>
      </trkpt>
      <trkpt lat="44.42442" lon="1.61112">
        <ele>295.74</ele>
        <time>2025-01-05T12:28:48Z</time>
      </trkpt>
      <trkpt lat="44.42445" lon="1.61092">
        <ele>295.74</ele>
        <time>2025-01-05T12:29:02Z</time>
      </trkpt>
      <trkpt lat="44.42451" lon="1.61074">
        <ele>297.18</ele>
        <time>2025-01-05T12:29:14Z</time>
      </trkpt>
      <trkpt lat="44.42455" lon="1.61054">
        <ele>297.67</ele>
        <time>2025-01-05T12:29:26Z</time>
      </trkpt>
      <trkpt lat="44.42458" lon="1.61037">
        <ele>297.67</ele>
        <time>2025-01-05T12:29:37Z</time>
      </trkpt>
      <trkpt lat="44.42459" lon="1.61019">
        <ele>298.15</ele>
        <time>2025-01-05T12:29:48Z</time>
      </trkpt>
      <trkpt lat="44.42463" lon="1.61">
        <ele>299.11</ele>
        <time>2025-01-05T12:29:59Z</time>
      </trkpt>
      <trkpt lat="44.42465" lon="1.60982">
        <ele>299.11</ele>
        <time>2025-01-05T12:30:11Z</time>
      </trkpt>
      <trkpt lat="44.42467" lon="1.60967">
        <ele>300.55</ele>
        <time>2025-01-05T12:30:22Z</time>
      </trkpt>
      <trkpt lat="44.4247" lon="1.60951">
        <ele>301.51</ele>
        <time>2025-01-05T12:30:35Z</time>
      </trkpt>
      <trkpt lat="44.42474" lon="1.60932">
        <ele>302.95</ele>
        <time>2025-01-05T12:30:49Z</time>
      </trkpt>
      <trkpt lat="44.42477" lon="1.60916">
        <ele>303.91</ele>
        <time>2025-01-05T12:31:00Z</time>
      </trkpt>
      <trkpt lat="44.4248" lon="1.60901">
        <ele>304.88</ele>
        <time>2025-01-05T12:31:10Z</time>
      </trkpt>
      <trkpt lat="44.42483" lon="1.60887">
        <ele>305.36</ele>
        <time>2025-01-05T12:31:20Z</time>
      </trkpt>
      <trkpt lat="44.42485" lon="1.60872">
        <ele>305.36</ele>
        <time>2025-01-05T12:31:30Z</time>
      </trkpt>
      <trkpt lat="44.42488" lon="1.60858">
        <ele>305.36</ele>
        <time>2025-01-05T12:31:39Z</time>
      </trkpt>
      <trkpt lat="44.42491" lon="1.60843">
        <ele>305.36</ele>
        <time>2025-01-05T12:31:48Z</time>
      </trkpt>
      <trkpt lat="44.42494" lon="1.60828">
        <ele>305.36</ele>
        <time>2025-01-05T12:31:57Z</time>
      </trkpt>
      <trkpt lat="44.42496" lon="1.60813">
        <ele>303.91</ele>
        <time>2025-01-05T12:32:07Z</time>
      </trkpt>
      <trkpt lat="44.42503" lon="1.60797">
        <ele>303.91</ele>
        <time>2025-01-05T12:32:17Z</time>
      </trkpt>
      <trkpt lat="44.4251" lon="1.60785">
        <ele>303.43</ele>
        <time>2025-01-05T12:32:27Z</time>
      </trkpt>
      <trkpt lat="44.42519" lon="1.60774">
        <ele>302.95</ele>
        <time>2025-01-05T12:32:36Z</time>
      </trkpt>
      <trkpt lat="44.42525" lon="1.60763">
        <ele>302.47</ele>
        <time>2025-01-05T12:32:45Z</time>
      </trkpt>
      <trkpt lat="44.42527" lon="1.60746">
        <ele>301.03</ele>
        <time>2025-01-05T12:33:00Z</time>
      </trkpt>
      <trkpt lat="44.42525" lon="1.60729">
        <ele>299.59</ele>
        <time>2025-01-05T12:33:11Z</time>
      </trkpt>
      <trkpt lat="44.42523" lon="1.60713">
        <ele>297.67</ele>
        <time>2025-01-05T12:33:21Z</time>
      </trkpt>
      <trkpt lat="44.42524" lon="1.60696">
        <ele>295.74</ele>
        <time>2025-01-05T12:33:32Z</time>
      </trkpt>
      <trkpt lat="44.42528" lon="1.60682">
        <ele>294.3</ele>
        <time>2025-01-05T12:33:44Z</time>
      </trkpt>
      <trkpt lat="44.42535" lon="1.60669">
        <ele>292.86</ele>
        <time>2025-01-05T12:33:56Z</time>
      </trkpt>
      <trkpt lat="44.42541" lon="1.60655">
        <ele>291.42</ele>
        <time>2025-01-05T12:34:10Z</time>
      </trkpt>
      <trkpt lat="44.42551" lon="1.60642">
        <ele>289.49</ele>
        <time>2025-01-05T12:34:22Z</time>
      </trkpt>
      <trkpt lat="44.42558" lon="1.60628">
        <ele>287.57</ele>
        <time>2025-01-05T12:34:33Z</time>
      </trkpt>
      <trkpt lat="44.42567" lon="1.60615">
        <ele>286.13</ele>
        <time>2025-01-05T12:34:45Z</time>
      </trkpt>
      <trkpt lat="44.42575" lon="1.60603">
        <ele>284.21</ele>
        <time>2025-01-05T12:34:56Z</time>
      </trkpt>
      <trkpt lat="44.42584" lon="1.60593">
        <ele>282.77</ele>
        <time>2025-01-05T12:35:06Z</time>
      </trkpt>
      <trkpt lat="44.42595" lon="1.60586">
        <ele>281.8</ele>
        <time>2025-01-05T12:35:16Z</time>
      </trkpt>
      <trkpt lat="44.42605" lon="1.6058">
        <ele>280.36</ele>
        <time>2025-01-05T12:35:26Z</time>
      </trkpt>
      <trkpt lat="44.42615" lon="1.60575">
        <ele>278.92</ele>
        <time>2025-01-05T12:35:38Z</time>
      </trkpt>
      <trkpt lat="44.42625" lon="1.60569">
        <ele>277</ele>
        <time>2025-01-05T12:35:48Z</time>
      </trkpt>
      <trkpt lat="44.42635" lon="1.60564">
        <ele>275.56</ele>
        <time>2025-01-05T12:35:58Z</time>
      </trkpt>
      <trkpt lat="44.42646" lon="1.60562">
        <ele>274.59</ele>
        <time>2025-01-05T12:36:08Z</time>
      </trkpt>
      <trkpt lat="44.42657" lon="1.60558">
        <ele>273.15</ele>
        <time>2025-01-05T12:36:18Z</time>
      </trkpt>
      <trkpt lat="44.42666" lon="1.60549">
        <ele>271.23</ele>
        <time>2025-01-05T12:36:29Z</time>
      </trkpt>
      <trkpt lat="44.42675" lon="1.6054">
        <ele>269.31</ele>
        <time>2025-01-05T12:36:40Z</time>
      </trkpt>
      <trkpt lat="44.42684" lon="1.60532">
        <ele>267.38</ele>
        <time>2025-01-05T12:36:52Z</time>
      </trkpt>
      <trkpt lat="44.42694" lon="1.60523">
        <ele>265.46</ele>
        <time>2025-01-05T12:37:04Z</time>
      </trkpt>
      <trkpt lat="44.42704" lon="1.60513">
        <ele>264.02</ele>
        <time>2025-01-05T12:37:16Z</time>
      </trkpt>
      <trkpt lat="44.42713" lon="1.60506">
        <ele>262.1</ele>
        <time>2025-01-05T12:37:26Z</time>
      </trkpt>
      <trkpt lat="44.42724" lon="1.60506">
        <ele>261.14</ele>
        <time>2025-01-05T12:37:37Z</time>
      </trkpt>
      <trkpt lat="44.42735" lon="1.60502">
        <ele>259.69</ele>
        <time>2025-01-05T12:37:48Z</time>
      </trkpt>
      <trkpt lat="44.4274" lon="1.6049">
        <ele>258.73</ele>
        <time>2025-01-05T12:37:59Z</time>
      </trkpt>
      <trkpt lat="44.42738" lon="1.60476">
        <ele>261.14</ele>
        <time>2025-01-05T12:38:15Z</time>
      </trkpt>
      <trkpt lat="44.42739" lon="1.60461">
        <ele>262.1</ele>
        <time>2025-01-05T12:38:26Z</time>
      </trkpt>
      <trkpt lat="44.42741" lon="1.60446">
        <ele>262.58</ele>
        <time>2025-01-05T12:38:36Z</time>
      </trkpt>
      <trkpt lat="44.42744" lon="1.60432">
        <ele>263.54</ele>
        <time>2025-01-05T12:38:45Z</time>
      </trkpt>
      <trkpt lat="44.42747" lon="1.60418">
        <ele>263.06</ele>
        <time>2025-01-05T12:38:55Z</time>
      </trkpt>
      <trkpt lat="44.42751" lon="1.60402">
        <ele>263.06</ele>
        <time>2025-01-05T12:39:07Z</time>
      </trkpt>
      <trkpt lat="44.42756" lon="1.60388">
        <ele>263.06</ele>
        <time>2025-01-05T12:39:24Z</time>
      </trkpt>
      <trkpt lat="44.42758" lon="1.60375">
        <ele>263.06</ele>
        <time>2025-01-05T12:39:33Z</time>
      </trkpt>
      <trkpt lat="44.42758" lon="1.6036">
        <ele>263.54</ele>
        <time>2025-01-05T12:39:43Z</time>
      </trkpt>
      <trkpt lat="44.4276" lon="1.60343">
        <ele>265.46</ele>
        <time>2025-01-05T12:39:55Z</time>
      </trkpt>
      <trkpt lat="44.42757" lon="1.60327">
        <ele>267.86</ele>
        <time>2025-01-05T12:40:12Z</time>
      </trkpt>
      <trkpt lat="44.42753" lon="1.6031">
        <ele>270.27</ele>
        <time>2025-01-05T12:40:30Z</time>
      </trkpt>
      <trkpt lat="44.42747" lon="1.60289">
        <ele>272.67</ele>
        <time>2025-01-05T12:40:53Z</time>
      </trkpt>
      <trkpt lat="44.42735" lon="1.60265">
        <ele>275.07</ele>
        <time>2025-01-05T12:41:18Z</time>
      </trkpt>
      <trkpt lat="44.42721" lon="1.60248">
        <ele>277</ele>
        <time>2025-01-05T12:41:40Z</time>
      </trkpt>
      <trkpt lat="44.42708" lon="1.60235">
        <ele>278.44</ele>
        <time>2025-01-05T12:41:54Z</time>
      </trkpt>
      <trkpt lat="44.42698" lon="1.60223">
        <ele>278.92</ele>
        <time>2025-01-05T12:42:08Z</time>
      </trkpt>
      <trkpt lat="44.4269" lon="1.60207">
        <ele>280.84</ele>
        <time>2025-01-05T12:42:25Z</time>
      </trkpt>
      <trkpt lat="44.42681" lon="1.60192">
        <ele>281.8</ele>
        <time>2025-01-05T12:42:40Z</time>
      </trkpt>
      <trkpt lat="44.4267" lon="1.60179">
        <ele>282.28</ele>
        <time>2025-01-05T12:42:55Z</time>
      </trkpt>
      <trkpt lat="44.42663" lon="1.60166">
        <ele>282.77</ele>
        <time>2025-01-05T12:43:07Z</time>
      </trkpt>
      <trkpt lat="44.4266" lon="1.60148">
        <ele>283.73</ele>
        <time>2025-01-05T12:43:23Z</time>
      </trkpt>
      <trkpt lat="44.4267" lon="1.60144">
        <ele>284.21</ele>
        <time>2025-01-05T12:43:35Z</time>
      </trkpt>
      <trkpt lat="44.42682" lon="1.6014">
        <ele>285.17</ele>
        <time>2025-01-05T12:43:47Z</time>
      </trkpt>
      <trkpt lat="44.42693" lon="1.60139">
        <ele>285.65</ele>
        <time>2025-01-05T12:43:58Z</time>
      </trkpt>
      <trkpt lat="44.42705" lon="1.60138">
        <ele>286.61</ele>
        <time>2025-01-05T12:44:09Z</time>
      </trkpt>
      <trkpt lat="44.42716" lon="1.60139">
        <ele>287.57</ele>
        <time>2025-01-05T12:44:21Z</time>
      </trkpt>
      <trkpt lat="44.42727" lon="1.60138">
        <ele>288.53</ele>
        <time>2025-01-05T12:44:32Z</time>
      </trkpt>
      <trkpt lat="44.42738" lon="1.60138">
        <ele>289.97</ele>
        <time>2025-01-05T12:44:44Z</time>
      </trkpt>
      <trkpt lat="44.42749" lon="1.60137">
        <ele>290.46</ele>
        <time>2025-01-05T12:44:56Z</time>
      </trkpt>
      <trkpt lat="44.42761" lon="1.60138">
        <ele>291.42</ele>
        <time>2025-01-05T12:45:08Z</time>
      </trkpt>
      <trkpt lat="44.42773" lon="1.60139">
        <ele>292.38</ele>
        <time>2025-01-05T12:45:21Z</time>
      </trkpt>
      <trkpt lat="44.42785" lon="1.60139">
        <ele>293.82</ele>
        <time>2025-01-05T12:45:35Z</time>
      </trkpt>
      <trkpt lat="44.42794" lon="1.60133">
        <ele>294.78</ele>
        <time>2025-01-05T12:45:47Z</time>
      </trkpt>
      <trkpt lat="44.42799" lon="1.60122">
        <ele>295.74</ele>
        <time>2025-01-05T12:45:58Z</time>
      </trkpt>
      <trkpt lat="44.42801" lon="1.6011">
        <ele>296.7</ele>
        <time>2025-01-05T12:46:09Z</time>
      </trkpt>
      <trkpt lat="44.42805" lon="1.60099">
        <ele>297.67</ele>
        <time>2025-01-05T12:46:20Z</time>
      </trkpt>
      <trkpt lat="44.42809" lon="1.60088">
        <ele>299.59</ele>
        <time>2025-01-05T12:46:32Z</time>
      </trkpt>
      <trkpt lat="44.42816" lon="1.60079">
        <ele>301.03</ele>
        <time>2025-01-05T12:46:45Z</time>
      </trkpt>
      <trkpt lat="44.42828" lon="1.60075">
        <ele>303.43</ele>
        <time>2025-01-05T12:47:01Z</time>
      </trkpt>
      <trkpt lat="44.42841" lon="1.60075">
        <ele>304.88</ele>
        <time>2025-01-05T12:47:29Z</time>
      </trkpt>
      <trkpt lat="44.42853" lon="1.60071">
        <ele>306.8</ele>
        <time>2025-01-05T12:47:44Z</time>
      </trkpt>
      <trkpt lat="44.42863" lon="1.60064">
        <ele>307.76</ele>
        <time>2025-01-05T12:47:57Z</time>
      </trkpt>
      <trkpt lat="44.42873" lon="1.60057">
        <ele>309.2</ele>
        <time>2025-01-05T12:48:10Z</time>
      </trkpt>
      <trkpt lat="44.42879" lon="1.60042">
        <ele>309.68</ele>
        <time>2025-01-05T12:48:23Z</time>
      </trkpt>
      <trkpt lat="44.42886" lon="1.60028">
        <ele>311.12</ele>
        <time>2025-01-05T12:48:36Z</time>
      </trkpt>
      <trkpt lat="44.42893" lon="1.60025">
        <ele>311.12</ele>
        <time>2025-01-05T12:49:27Z</time>
      </trkpt>
      <trkpt lat="44.42898" lon="1.60005">
        <ele>312.09</ele>
        <time>2025-01-05T12:50:05Z</time>
      </trkpt>
      <trkpt lat="44.42906" lon="1.59993">
        <ele>312.57</ele>
        <time>2025-01-05T12:50:20Z</time>
      </trkpt>
      <trkpt lat="44.42914" lon="1.59984">
        <ele>313.53</ele>
        <time>2025-01-05T12:50:32Z</time>
      </trkpt>
      <trkpt lat="44.42924" lon="1.59976">
        <ele>314.97</ele>
        <time>2025-01-05T12:50:45Z</time>
      </trkpt>
      <trkpt lat="44.42935" lon="1.59973">
        <ele>315.93</ele>
        <time>2025-01-05T12:50:57Z</time>
      </trkpt>
      <trkpt lat="44.42946" lon="1.5997">
        <ele>316.89</ele>
        <time>2025-01-05T12:51:11Z</time>
      </trkpt>
      <trkpt lat="44.42957" lon="1.59962">
        <ele>318.33</ele>
        <time>2025-01-05T12:51:23Z</time>
      </trkpt>
      <trkpt lat="44.42968" lon="1.59954">
        <ele>318.81</ele>
        <time>2025-01-05T12:51:36Z</time>
      </trkpt>
      <trkpt lat="44.42979" lon="1.59949">
        <ele>319.3</ele>
        <time>2025-01-05T12:51:53Z</time>
      </trkpt>
      <trkpt lat="44.43005" lon="1.59947">
        <ele>321.22</ele>
        <time>2025-01-05T12:52:34Z</time>
      </trkpt>
      <trkpt lat="44.43019" lon="1.59944">
        <ele>322.66</ele>
        <time>2025-01-05T12:52:48Z</time>
      </trkpt>
      <trkpt lat="44.43031" lon="1.59946">
        <ele>323.62</ele>
        <time>2025-01-05T12:52:59Z</time>
      </trkpt>
      <trkpt lat="44.43041" lon="1.59953">
        <ele>323.62</ele>
        <time>2025-01-05T12:53:11Z</time>
      </trkpt>
      <trkpt lat="44.43052" lon="1.59959">
        <ele>324.1</ele>
        <time>2025-01-05T12:53:21Z</time>
      </trkpt>
      <trkpt lat="44.43063" lon="1.59966">
        <ele>324.1</ele>
        <time>2025-01-05T12:53:32Z</time>
      </trkpt>
      <trkpt lat="44.43072" lon="1.59975">
        <ele>324.1</ele>
        <time>2025-01-05T12:53:45Z</time>
      </trkpt>
      <trkpt lat="44.43085" lon="1.5998">
        <ele>324.1</ele>
        <time>2025-01-05T12:53:59Z</time>
      </trkpt>
      <trkpt lat="44.43098" lon="1.59985">
        <ele>322.18</ele>
        <time>2025-01-05T12:54:11Z</time>
      </trkpt>
      <trkpt lat="44.43113" lon="1.59995">
        <ele>321.7</ele>
        <time>2025-01-05T12:54:25Z</time>
      </trkpt>
      <trkpt lat="44.43126" lon="1.60001">
        <ele>321.22</ele>
        <time>2025-01-05T12:54:38Z</time>
      </trkpt>
      <trkpt lat="44.43139" lon="1.60004">
        <ele>320.26</ele>
        <time>2025-01-05T12:54:51Z</time>
      </trkpt>
      <trkpt lat="44.43155" lon="1.60006">
        <ele>318.81</ele>
        <time>2025-01-05T12:55:08Z</time>
      </trkpt>
      <trkpt lat="44.43169" lon="1.60004">
        <ele>318.33</ele>
        <time>2025-01-05T12:55:22Z</time>
      </trkpt>
      <trkpt lat="44.43181" lon="1.60004">
        <ele>317.85</ele>
        <time>2025-01-05T12:55:33Z</time>
      </trkpt>
      <trkpt lat="44.432" lon="1.60011">
        <ele>317.85</ele>
        <time>2025-01-05T12:55:49Z</time>
      </trkpt>
      <trkpt lat="44.4321" lon="1.60026">
        <ele>317.85</ele>
        <time>2025-01-05T12:56:03Z</time>
      </trkpt>
      <trkpt lat="44.43219" lon="1.60041">
        <ele>319.3</ele>
        <time>2025-01-05T12:56:14Z</time>
      </trkpt>
      <trkpt lat="44.43226" lon="1.60056">
        <ele>319.3</ele>
        <time>2025-01-05T12:56:25Z</time>
      </trkpt>
      <trkpt lat="44.43233" lon="1.60067">
        <ele>319.3</ele>
        <time>2025-01-05T12:56:35Z</time>
      </trkpt>
      <trkpt lat="44.4324" lon="1.60078">
        <ele>319.3</ele>
        <time>2025-01-05T12:56:45Z</time>
      </trkpt>
      <trkpt lat="44.43246" lon="1.6009">
        <ele>320.26</ele>
        <time>2025-01-05T12:56:55Z</time>
      </trkpt>
      <trkpt lat="44.43252" lon="1.60102">
        <ele>320.26</ele>
        <time>2025-01-05T12:57:05Z</time>
      </trkpt>
      <trkpt lat="44.43263" lon="1.60115">
        <ele>320.74</ele>
        <time>2025-01-05T12:57:19Z</time>
      </trkpt>
      <trkpt lat="44.43272" lon="1.60125">
        <ele>320.74</ele>
        <time>2025-01-05T12:57:28Z</time>
      </trkpt>
      <trkpt lat="44.43281" lon="1.60134">
        <ele>320.74</ele>
        <time>2025-01-05T12:57:38Z</time>
      </trkpt>
      <trkpt lat="44.43291" lon="1.60146">
        <ele>320.74</ele>
        <time>2025-01-05T12:57:48Z</time>
      </trkpt>
      <trkpt lat="44.43301" lon="1.60154">
        <ele>321.22</ele>
        <time>2025-01-05T12:57:58Z</time>
      </trkpt>
      <trkpt lat="44.43311" lon="1.60162">
        <ele>321.22</ele>
        <time>2025-01-05T12:58:08Z</time>
      </trkpt>
      <trkpt lat="44.4332" lon="1.60169">
        <ele>321.7</ele>
        <time>2025-01-05T12:58:17Z</time>
      </trkpt>
      <trkpt lat="44.4333" lon="1.60175">
        <ele>321.7</ele>
        <time>2025-01-05T12:58:26Z</time>
      </trkpt>
      <trkpt lat="44.4334" lon="1.60177">
        <ele>322.18</ele>
        <time>2025-01-05T12:58:35Z</time>
      </trkpt>
      <trkpt lat="44.43351" lon="1.60173">
        <ele>323.14</ele>
        <time>2025-01-05T12:58:44Z</time>
      </trkpt>
      <trkpt lat="44.43359" lon="1.60165">
        <ele>323.14</ele>
        <time>2025-01-05T12:58:53Z</time>
      </trkpt>
      <trkpt lat="44.43367" lon="1.6016">
        <ele>323.62</ele>
        <time>2025-01-05T12:59:02Z</time>
      </trkpt>
      <trkpt lat="44.43372" lon="1.60172">
        <ele>324.1</ele>
        <time>2025-01-05T12:59:11Z</time>
      </trkpt>
      <trkpt lat="44.43377" lon="1.60187">
        <ele>324.58</ele>
        <time>2025-01-05T12:59:21Z</time>
      </trkpt>
      <trkpt lat="44.43381" lon="1.60201">
        <ele>324.58</ele>
        <time>2025-01-05T12:59:30Z</time>
      </trkpt>
      <trkpt lat="44.43386" lon="1.60217">
        <ele>325.06</ele>
        <time>2025-01-05T12:59:39Z</time>
      </trkpt>
      <trkpt lat="44.43391" lon="1.6023">
        <ele>325.54</ele>
        <time>2025-01-05T12:59:48Z</time>
      </trkpt>
      <trkpt lat="44.43395" lon="1.60242">
        <ele>325.54</ele>
        <time>2025-01-05T12:59:57Z</time>
      </trkpt>
      <trkpt lat="44.43401" lon="1.60256">
        <ele>326.5</ele>
        <time>2025-01-05T13:00:07Z</time>
      </trkpt>
      <trkpt lat="44.43407" lon="1.60268">
        <ele>326.99</ele>
        <time>2025-01-05T13:00:17Z</time>
      </trkpt>
      <trkpt lat="44.43412" lon="1.60282">
        <ele>327.95</ele>
        <time>2025-01-05T13:00:27Z</time>
      </trkpt>
      <trkpt lat="44.43418" lon="1.60297">
        <ele>328.43</ele>
        <time>2025-01-05T13:00:39Z</time>
      </trkpt>
      <trkpt lat="44.43425" lon="1.60303">
        <ele>329.39</ele>
        <time>2025-01-05T13:00:56Z</time>
      </trkpt>
      <trkpt lat="44.43433" lon="1.60311">
        <ele>330.83</ele>
        <time>2025-01-05T13:01:08Z</time>
      </trkpt>
      <trkpt lat="44.43441" lon="1.6032">
        <ele>331.79</ele>
        <time>2025-01-05T13:01:19Z</time>
      </trkpt>
      <trkpt lat="44.43449" lon="1.60332">
        <ele>333.23</ele>
        <time>2025-01-05T13:01:31Z</time>
      </trkpt>
      <trkpt lat="44.43457" lon="1.60341">
        <ele>334.2</ele>
        <time>2025-01-05T13:01:42Z</time>
      </trkpt>
      <trkpt lat="44.43472" lon="1.60348">
        <ele>336.12</ele>
        <time>2025-01-05T13:01:59Z</time>
      </trkpt>
      <trkpt lat="44.43485" lon="1.60356">
        <ele>337.08</ele>
        <time>2025-01-05T13:02:12Z</time>
      </trkpt>
      <trkpt lat="44.43501" lon="1.60362">
        <ele>338.52</ele>
        <time>2025-01-05T13:02:28Z</time>
      </trkpt>
      <trkpt lat="44.43516" lon="1.60362">
        <ele>338.52</ele>
        <time>2025-01-05T13:02:44Z</time>
      </trkpt>
      <trkpt lat="44.43532" lon="1.60361">
        <ele>339.48</ele>
        <time>2025-01-05T13:03:02Z</time>
      </trkpt>
      <trkpt lat="44.43547" lon="1.60358">
        <ele>339.48</ele>
        <time>2025-01-05T13:03:15Z</time>
      </trkpt>
      <trkpt lat="44.43561" lon="1.60355">
        <ele>339.48</ele>
        <time>2025-01-05T13:03:28Z</time>
      </trkpt>
      <trkpt lat="44.43575" lon="1.60361">
        <ele>339.48</ele>
        <time>2025-01-05T13:03:40Z</time>
      </trkpt>
      <trkpt lat="44.43587" lon="1.60366">
        <ele>339.48</ele>
        <time>2025-01-05T13:03:52Z</time>
      </trkpt>
      <trkpt lat="44.43599" lon="1.60373">
        <ele>340.44</ele>
        <time>2025-01-05T13:04:07Z</time>
      </trkpt>
      <trkpt lat="44.43614" lon="1.60379">
        <ele>340.92</ele>
        <time>2025-01-05T13:04:21Z</time>
      </trkpt>
      <trkpt lat="44.43626" lon="1.60385">
        <ele>341.89</ele>
        <time>2025-01-05T13:04:33Z</time>
      </trkpt>
      <trkpt lat="44.43639" lon="1.60389">
        <ele>342.37</ele>
        <time>2025-01-05T13:04:46Z</time>
      </trkpt>
      <trkpt lat="44.4365" lon="1.60393">
        <ele>343.33</ele>
        <time>2025-01-05T13:04:59Z</time>
      </trkpt>
      <trkpt lat="44.43665" lon="1.60395">
        <ele>343.81</ele>
        <time>2025-01-05T13:05:12Z</time>
      </trkpt>
      <trkpt lat="44.43681" lon="1.60399">
        <ele>344.77</ele>
        <time>2025-01-05T13:05:27Z</time>
      </trkpt>
      <trkpt lat="44.43696" lon="1.60406">
        <ele>345.73</ele>
        <time>2025-01-05T13:05:42Z</time>
      </trkpt>
      <trkpt lat="44.43709" lon="1.60411">
        <ele>346.69</ele>
        <time>2025-01-05T13:05:56Z</time>
      </trkpt>
      <trkpt lat="44.43727" lon="1.60414">
        <ele>347.65</ele>
        <time>2025-01-05T13:06:16Z</time>
      </trkpt>
      <trkpt lat="44.4374" lon="1.60423">
        <ele>349.1</ele>
        <time>2025-01-05T13:06:29Z</time>
      </trkpt>
      <trkpt lat="44.43749" lon="1.60437">
        <ele>350.06</ele>
        <time>2025-01-05T13:06:41Z</time>
      </trkpt>
      <trkpt lat="44.43757" lon="1.60451">
        <ele>351.02</ele>
        <time>2025-01-05T13:06:54Z</time>
      </trkpt>
      <trkpt lat="44.43766" lon="1.60464">
        <ele>351.5</ele>
        <time>2025-01-05T13:07:06Z</time>
      </trkpt>
      <trkpt lat="44.43774" lon="1.60476">
        <ele>351.98</ele>
        <time>2025-01-05T13:07:19Z</time>
      </trkpt>
      <trkpt lat="44.4378" lon="1.6049">
        <ele>352.46</ele>
        <time>2025-01-05T13:07:31Z</time>
      </trkpt>
      <trkpt lat="44.43789" lon="1.60503">
        <ele>352.94</ele>
        <time>2025-01-05T13:07:42Z</time>
      </trkpt>
      <trkpt lat="44.43796" lon="1.60516">
        <ele>352.94</ele>
        <time>2025-01-05T13:07:53Z</time>
      </trkpt>
      <trkpt lat="44.43802" lon="1.60527">
        <ele>352.94</ele>
        <time>2025-01-05T13:08:04Z</time>
      </trkpt>
      <trkpt lat="44.4381" lon="1.6054">
        <ele>352.94</ele>
        <time>2025-01-05T13:08:16Z</time>
      </trkpt>
      <trkpt lat="44.43817" lon="1.60554">
        <ele>352.94</ele>
        <time>2025-01-05T13:08:28Z</time>
      </trkpt>
      <trkpt lat="44.43823" lon="1.60567">
        <ele>352.94</ele>
        <time>2025-01-05T13:08:39Z</time>
      </trkpt>
      <trkpt lat="44.4383" lon="1.6058">
        <ele>353.42</ele>
        <time>2025-01-05T13:08:51Z</time>
      </trkpt>
      <trkpt lat="44.43842" lon="1.60595">
        <ele>353.9</ele>
        <time>2025-01-05T13:09:07Z</time>
      </trkpt>
      <trkpt lat="44.43852" lon="1.60606">
        <ele>354.86</ele>
        <time>2025-01-05T13:09:21Z</time>
      </trkpt>
      <trkpt lat="44.43865" lon="1.60616">
        <ele>355.83</ele>
        <time>2025-01-05T13:09:37Z</time>
      </trkpt>
      <trkpt lat="44.43874" lon="1.60629">
        <ele>356.31</ele>
        <time>2025-01-05T13:09:51Z</time>
      </trkpt>
      <trkpt lat="44.4388" lon="1.60641">
        <ele>356.79</ele>
        <time>2025-01-05T13:10:03Z</time>
      </trkpt>
      <trkpt lat="44.43894" lon="1.60648">
        <ele>356.79</ele>
        <time>2025-01-05T13:10:16Z</time>
      </trkpt>
      <trkpt lat="44.43909" lon="1.6065">
        <ele>355.83</ele>
        <time>2025-01-05T13:10:35Z</time>
      </trkpt>
      <trkpt lat="44.43921" lon="1.60655">
        <ele>355.34</ele>
        <time>2025-01-05T13:10:49Z</time>
      </trkpt>
      <trkpt lat="44.43922" lon="1.60659">
        <ele>363.4</ele>
      </trkpt>
      <trkpt lat="44.4393" lon="1.60658">
        <ele>357.27</ele>
        <time>2025-01-05T13:13:28Z</time>
      </trkpt>
      <trkpt lat="44.4394" lon="1.60657">
        <ele>355.34</ele>
        <time>2025-01-05T13:13:38Z</time>
      </trkpt>
      <trkpt lat="44.43951" lon="1.60654">
        <ele>354.38</ele>
        <time>2025-01-05T13:13:49Z</time>
      </trkpt>
      <trkpt lat="44.43963" lon="1.60654">
        <ele>353.9</ele>
        <time>2025-01-05T13:13:58Z</time>
      </trkpt>
      <trkpt lat="44.43975" lon="1.60658">
        <ele>353.9</ele>
        <time>2025-01-05T13:14:10Z</time>
      </trkpt>
      <trkpt lat="44.43984" lon="1.60673">
        <ele>353.9</ele>
        <time>2025-01-05T13:14:22Z</time>
      </trkpt>
      <trkpt lat="44.43989" lon="1.60693">
        <ele>355.34</ele>
        <time>2025-01-05T13:14:37Z</time>
      </trkpt>
      <trkpt lat="44.43988" lon="1.60711">
        <ele>356.31</ele>
        <time>2025-01-05T13:14:48Z</time>
      </trkpt>
      <trkpt lat="44.43992" lon="1.60724">
        <ele>356.31</ele>
        <time>2025-01-05T13:15:00Z</time>
      </trkpt>
      <trkpt lat="44.43994" lon="1.60741">
        <ele>356.79</ele>
        <time>2025-01-05T13:15:11Z</time>
      </trkpt>
      <trkpt lat="44.43998" lon="1.60757">
        <ele>356.79</ele>
        <time>2025-01-05T13:15:21Z</time>
      </trkpt>
      <trkpt lat="44.43998" lon="1.60774">
        <ele>356.79</ele>
        <time>2025-01-05T13:15:44Z</time>
      </trkpt>
      <trkpt lat="44.44005" lon="1.60782">
        <ele>356.79</ele>
        <time>2025-01-05T13:15:53Z</time>
      </trkpt>
      <trkpt lat="44.44016" lon="1.60795">
        <ele>356.79</ele>
        <time>2025-01-05T13:16:35Z</time>
      </trkpt>
      <trkpt lat="44.44029" lon="1.60805">
        <ele>356.79</ele>
        <time>2025-01-05T13:16:49Z</time>
      </trkpt>
      <trkpt lat="44.44041" lon="1.60815">
        <ele>355.34</ele>
        <time>2025-01-05T13:17:01Z</time>
      </trkpt>
      <trkpt lat="44.44052" lon="1.60823">
        <ele>354.38</ele>
        <time>2025-01-05T13:17:12Z</time>
      </trkpt>
      <trkpt lat="44.44063" lon="1.60833">
        <ele>353.9</ele>
        <time>2025-01-05T13:17:25Z</time>
      </trkpt>
      <trkpt lat="44.44078" lon="1.60851">
        <ele>352.46</ele>
        <time>2025-01-05T13:17:48Z</time>
      </trkpt>
      <trkpt lat="44.4409" lon="1.60868">
        <ele>351.98</ele>
        <time>2025-01-05T13:18:01Z</time>
      </trkpt>
      <trkpt lat="44.441" lon="1.60878">
        <ele>351.5</ele>
        <time>2025-01-05T13:18:11Z</time>
      </trkpt>
      <trkpt lat="44.4411" lon="1.60892">
        <ele>351.02</ele>
        <time>2025-01-05T13:18:23Z</time>
      </trkpt>
      <trkpt lat="44.44119" lon="1.60904">
        <ele>351.02</ele>
        <time>2025-01-05T13:18:33Z</time>
      </trkpt>
      <trkpt lat="44.44128" lon="1.60918">
        <ele>351.02</ele>
        <time>2025-01-05T13:18:44Z</time>
      </trkpt>
      <trkpt lat="44.44136" lon="1.60936">
        <ele>350.54</ele>
        <time>2025-01-05T13:18:58Z</time>
      </trkpt>
      <trkpt lat="44.44146" lon="1.60951">
        <ele>350.54</ele>
        <time>2025-01-05T13:19:10Z</time>
      </trkpt>
      <trkpt lat="44.44154" lon="1.60967">
        <ele>349.58</ele>
        <time>2025-01-05T13:19:21Z</time>
      </trkpt>
      <trkpt lat="44.44164" lon="1.60983">
        <ele>348.62</ele>
        <time>2025-01-05T13:19:37Z</time>
      </trkpt>
      <trkpt lat="44.44172" lon="1.60993">
        <ele>347.65</ele>
        <time>2025-01-05T13:19:46Z</time>
      </trkpt>
      <trkpt lat="44.44181" lon="1.61003">
        <ele>346.21</ele>
        <time>2025-01-05T13:19:57Z</time>
      </trkpt>
      <trkpt lat="44.4419" lon="1.61014">
        <ele>344.77</ele>
        <time>2025-01-05T13:20:09Z</time>
      </trkpt>
      <trkpt lat="44.44198" lon="1.61028">
        <ele>343.33</ele>
        <time>2025-01-05T13:20:21Z</time>
      </trkpt>
      <trkpt lat="44.44206" lon="1.61047">
        <ele>341.41</ele>
        <time>2025-01-05T13:20:39Z</time>
      </trkpt>
      <trkpt lat="44.44213" lon="1.61066">
        <ele>339.48</ele>
        <time>2025-01-05T13:20:51Z</time>
      </trkpt>
      <trkpt lat="44.44217" lon="1.61084">
        <ele>337.56</ele>
        <time>2025-01-05T13:21:18Z</time>
      </trkpt>
      <trkpt lat="44.44222" lon="1.61098">
        <ele>336.6</ele>
        <time>2025-01-05T13:21:46Z</time>
      </trkpt>
      <trkpt lat="44.44225" lon="1.61106">
        <ele>335.16</ele>
        <time>2025-01-05T13:22:25Z</time>
      </trkpt>
      <trkpt lat="44.44229" lon="1.6112">
        <ele>333.23</ele>
        <time>2025-01-05T13:22:34Z</time>
      </trkpt>
      <trkpt lat="44.44233" lon="1.61134">
        <ele>330.83</ele>
        <time>2025-01-05T13:22:44Z</time>
      </trkpt>
      <trkpt lat="44.44236" lon="1.61148">
        <ele>328.91</ele>
        <time>2025-01-05T13:22:55Z</time>
      </trkpt>
      <trkpt lat="44.4424" lon="1.61162">
        <ele>326.99</ele>
        <time>2025-01-05T13:23:05Z</time>
      </trkpt>
      <trkpt lat="44.44242" lon="1.61178">
        <ele>325.06</ele>
        <time>2025-01-05T13:23:16Z</time>
      </trkpt>
      <trkpt lat="44.44241" lon="1.61193">
        <ele>323.62</ele>
        <time>2025-01-05T13:23:26Z</time>
      </trkpt>
      <trkpt lat="44.44242" lon="1.61207">
        <ele>322.66</ele>
        <time>2025-01-05T13:23:37Z</time>
      </trkpt>
      <trkpt lat="44.44245" lon="1.6122">
        <ele>319.78</ele>
        <time>2025-01-05T13:23:50Z</time>
      </trkpt>
      <trkpt lat="44.44247" lon="1.61236">
        <ele>318.81</ele>
        <time>2025-01-05T13:24:01Z</time>
      </trkpt>
      <trkpt lat="44.4425" lon="1.61252">
        <ele>316.41</ele>
        <time>2025-01-05T13:24:14Z</time>
      </trkpt>
      <trkpt lat="44.44253" lon="1.61267">
        <ele>314.97</ele>
        <time>2025-01-05T13:24:25Z</time>
      </trkpt>
      <trkpt lat="44.44255" lon="1.61282">
        <ele>313.53</ele>
        <time>2025-01-05T13:24:36Z</time>
      </trkpt>
      <trkpt lat="44.44255" lon="1.61299">
        <ele>311.6</ele>
        <time>2025-01-05T13:24:51Z</time>
      </trkpt>
      <trkpt lat="44.4426" lon="1.61314">
        <ele>309.68</ele>
        <time>2025-01-05T13:25:10Z</time>
      </trkpt>
      <trkpt lat="44.44269" lon="1.61319">
        <ele>307.76</ele>
        <time>2025-01-05T13:25:21Z</time>
      </trkpt>
      <trkpt lat="44.4428" lon="1.61326">
        <ele>306.32</ele>
        <time>2025-01-05T13:25:35Z</time>
      </trkpt>
      <trkpt lat="44.44291" lon="1.6133">
        <ele>304.88</ele>
        <time>2025-01-05T13:25:46Z</time>
      </trkpt>
      <trkpt lat="44.44302" lon="1.61332">
        <ele>303.43</ele>
        <time>2025-01-05T13:25:56Z</time>
      </trkpt>
      <trkpt lat="44.44313" lon="1.61336">
        <ele>302.47</ele>
        <time>2025-01-05T13:26:07Z</time>
      </trkpt>
      <trkpt lat="44.44326" lon="1.61346">
        <ele>301.51</ele>
        <time>2025-01-05T13:26:20Z</time>
      </trkpt>
      <trkpt lat="44.44337" lon="1.61355">
        <ele>301.03</ele>
        <time>2025-01-05T13:26:29Z</time>
      </trkpt>
      <trkpt lat="44.44346" lon="1.61362">
        <ele>300.55</ele>
        <time>2025-01-05T13:26:38Z</time>
      </trkpt>
      <trkpt lat="44.44358" lon="1.61366">
        <ele>300.55</ele>
        <time>2025-01-05T13:26:48Z</time>
      </trkpt>
      <trkpt lat="44.44368" lon="1.6137">
        <ele>299.11</ele>
        <time>2025-01-05T13:26:59Z</time>
      </trkpt>
      <trkpt lat="44.4438" lon="1.61373">
        <ele>299.11</ele>
        <time>2025-01-05T13:27:09Z</time>
      </trkpt>
      <trkpt lat="44.44393" lon="1.61379">
        <ele>297.67</ele>
        <time>2025-01-05T13:27:19Z</time>
      </trkpt>
      <trkpt lat="44.44404" lon="1.61387">
        <ele>295.74</ele>
        <time>2025-01-05T13:27:33Z</time>
      </trkpt>
      <trkpt lat="44.44417" lon="1.61392">
        <ele>294.78</ele>
        <time>2025-01-05T13:27:46Z</time>
      </trkpt>
      <trkpt lat="44.4443" lon="1.61399">
        <ele>293.82</ele>
        <time>2025-01-05T13:27:58Z</time>
      </trkpt>
      <trkpt lat="44.44443" lon="1.61403">
        <ele>293.34</ele>
        <time>2025-01-05T13:28:08Z</time>
      </trkpt>
      <trkpt lat="44.44455" lon="1.61408">
        <ele>292.86</ele>
        <time>2025-01-05T13:28:20Z</time>
      </trkpt>
      <trkpt lat="44.44467" lon="1.61418">
        <ele>292.86</ele>
        <time>2025-01-05T13:28:32Z</time>
      </trkpt>
      <trkpt lat="44.44479" lon="1.61429">
        <ele>292.86</ele>
        <time>2025-01-05T13:28:45Z</time>
      </trkpt>
      <trkpt lat="44.44486" lon="1.61443">
        <ele>292.38</ele>
        <time>2025-01-05T13:28:56Z</time>
      </trkpt>
      <trkpt lat="44.44489" lon="1.61456">
        <ele>292.38</ele>
        <time>2025-01-05T13:29:05Z</time>
      </trkpt>
      <trkpt lat="44.44494" lon="1.61469">
        <ele>291.42</ele>
        <time>2025-01-05T13:29:14Z</time>
      </trkpt>
      <trkpt lat="44.445" lon="1.61485">
        <ele>290.46</ele>
        <time>2025-01-05T13:29:25Z</time>
      </trkpt>
      <trkpt lat="44.44507" lon="1.615">
        <ele>289.49</ele>
        <time>2025-01-05T13:29:36Z</time>
      </trkpt>
      <trkpt lat="44.44514" lon="1.61512">
        <ele>287.57</ele>
        <time>2025-01-05T13:29:46Z</time>
      </trkpt>
      <trkpt lat="44.4452" lon="1.61524">
        <ele>286.61</ele>
        <time>2025-01-05T13:29:55Z</time>
      </trkpt>
      <trkpt lat="44.44527" lon="1.61536">
        <ele>285.17</ele>
        <time>2025-01-05T13:30:05Z</time>
      </trkpt>
      <trkpt lat="44.44533" lon="1.61547">
        <ele>284.21</ele>
        <time>2025-01-05T13:30:13Z</time>
      </trkpt>
      <trkpt lat="44.44538" lon="1.6156">
        <ele>282.77</ele>
        <time>2025-01-05T13:30:21Z</time>
      </trkpt>
      <trkpt lat="44.44542" lon="1.61571">
        <ele>281.8</ele>
        <time>2025-01-05T13:30:29Z</time>
      </trkpt>
      <trkpt lat="44.44549" lon="1.61583">
        <ele>280.36</ele>
        <time>2025-01-05T13:30:38Z</time>
      </trkpt>
      <trkpt lat="44.44555" lon="1.61594">
        <ele>279.4</ele>
        <time>2025-01-05T13:30:46Z</time>
      </trkpt>
      <trkpt lat="44.44562" lon="1.61603">
        <ele>278.92</ele>
        <time>2025-01-05T13:30:53Z</time>
      </trkpt>
      <trkpt lat="44.44568" lon="1.61613">
        <ele>278.92</ele>
        <time>2025-01-05T13:31:01Z</time>
      </trkpt>
      <trkpt lat="44.44575" lon="1.61624">
        <ele>278.44</ele>
        <time>2025-01-05T13:31:09Z</time>
      </trkpt>
      <trkpt lat="44.44583" lon="1.61635">
        <ele>277.96</ele>
        <time>2025-01-05T13:31:17Z</time>
      </trkpt>
      <trkpt lat="44.44589" lon="1.61648">
        <ele>277.96</ele>
        <time>2025-01-05T13:31:26Z</time>
      </trkpt>
      <trkpt lat="44.44594" lon="1.61661">
        <ele>277.96</ele>
        <time>2025-01-05T13:31:34Z</time>
      </trkpt>
      <trkpt lat="44.44597" lon="1.61675">
        <ele>277.96</ele>
        <time>2025-01-05T13:31:42Z</time>
      </trkpt>
      <trkpt lat="44.44599" lon="1.61689">
        <ele>277.96</ele>
        <time>2025-01-05T13:31:50Z</time>
      </trkpt>
      <trkpt lat="44.44599" lon="1.61704">
        <ele>277.96</ele>
        <time>2025-01-05T13:31:59Z</time>
      </trkpt>
      <trkpt lat="44.446" lon="1.6172">
        <ele>277.96</ele>
        <time>2025-01-05T13:32:09Z</time>
      </trkpt>
      <trkpt lat="44.446" lon="1.61736">
        <ele>277.48</ele>
        <time>2025-01-05T13:32:17Z</time>
      </trkpt>
      <trkpt lat="44.446" lon="1.61752">
        <ele>277.48</ele>
        <time>2025-01-05T13:32:26Z</time>
      </trkpt>
      <trkpt lat="44.44602" lon="1.61766">
        <ele>277.48</ele>
        <time>2025-01-05T13:32:34Z</time>
      </trkpt>
      <trkpt lat="44.44603" lon="1.61779">
        <ele>277</ele>
        <time>2025-01-05T13:32:42Z</time>
      </trkpt>
      <trkpt lat="44.44606" lon="1.61792">
        <ele>277</ele>
        <time>2025-01-05T13:32:50Z</time>
      </trkpt>
      <trkpt lat="44.44608" lon="1.61805">
        <ele>277</ele>
        <time>2025-01-05T13:32:58Z</time>
      </trkpt>
      <trkpt lat="44.44613" lon="1.61831">
        <ele>277.4</ele>
      </trkpt>
      <trkpt lat="44.44627" lon="1.61862">
        <ele>276.1</ele>
      </trkpt>
      <trkpt lat="44.44657" lon="1.61931">
        <ele>275.2</ele>
      </trkpt>
      <trkpt lat="44.44684" lon="1.62015">
        <ele>274.8</ele>
      </trkpt>
      <trkpt lat="44.44704" lon="1.62073">
        <ele>276.8</ele>
      </trkpt>
      <trkpt lat="44.44744" lon="1.62161">
        <ele>282.5</ele>
      </trkpt>
      <trkpt lat="44.44765" lon="1.62191">
        <ele>284.4</ele>
      </trkpt>
      <trkpt lat="44.44787" lon="1.62216">
        <ele>285.6</ele>
      </trkpt>
      <trkpt lat="44.44778" lon="1.62252">
        <ele>286</ele>
      </trkpt>
      <trkpt lat="44.44767" lon="1.6227">
        <ele>284.3</ele>
      </trkpt>
      <trkpt lat="44.44766" lon="1.62303">
        <ele>283.9</ele>
      </trkpt>
      <trkpt lat="44.44772" lon="1.62348">
        <ele>284</ele>
        <time>2025-01-05T13:51:35Z</time>
      </trkpt>
      <trkpt lat="44.44771" lon="1.62361">
        <ele>282.77</ele>
        <time>2025-01-05T13:51:44Z</time>
      </trkpt>
      <trkpt lat="44.44766" lon="1.62371">
        <ele>282.77</ele>
        <time>2025-01-05T13:51:52Z</time>
      </trkpt>
      <trkpt lat="44.44761" lon="1.62382">
        <ele>282.77</ele>
        <time>2025-01-05T13:52:02Z</time>
      </trkpt>
      <trkpt lat="44.44758" lon="1.62393">
        <ele>282.77</ele>
        <time>2025-01-05T13:52:16Z</time>
      </trkpt>
      <trkpt lat="44.44756" lon="1.62407">
        <ele>284.69</ele>
        <time>2025-01-05T13:52:26Z</time>
      </trkpt>
      <trkpt lat="44.44753" lon="1.62423">
        <ele>285.65</ele>
        <time>2025-01-05T13:52:37Z</time>
      </trkpt>
      <trkpt lat="44.44752" lon="1.62443">
        <ele>287.09</ele>
        <time>2025-01-05T13:52:52Z</time>
      </trkpt>
      <trkpt lat="44.4475" lon="1.6246">
        <ele>289.01</ele>
        <time>2025-01-05T13:53:03Z</time>
      </trkpt>
      <trkpt lat="44.44748" lon="1.62476">
        <ele>289.01</ele>
        <time>2025-01-05T13:53:14Z</time>
      </trkpt>
      <trkpt lat="44.44749" lon="1.62492">
        <ele>289.97</ele>
        <time>2025-01-05T13:53:25Z</time>
      </trkpt>
      <trkpt lat="44.44751" lon="1.62507">
        <ele>290.94</ele>
        <time>2025-01-05T13:53:34Z</time>
      </trkpt>
      <trkpt lat="44.44755" lon="1.62525">
        <ele>291.9</ele>
        <time>2025-01-05T13:53:45Z</time>
      </trkpt>
      <trkpt lat="44.44756" lon="1.6254">
        <ele>292.38</ele>
        <time>2025-01-05T13:53:56Z</time>
      </trkpt>
      <trkpt lat="44.44759" lon="1.62554">
        <ele>293.34</ele>
        <time>2025-01-05T13:54:07Z</time>
      </trkpt>
      <trkpt lat="44.44761" lon="1.62567">
        <ele>293.82</ele>
        <time>2025-01-05T13:54:16Z</time>
      </trkpt>
      <trkpt lat="44.44763" lon="1.62581">
        <ele>294.78</ele>
        <time>2025-01-05T13:54:26Z</time>
      </trkpt>
      <trkpt lat="44.44766" lon="1.62595">
        <ele>295.26</ele>
        <time>2025-01-05T13:54:36Z</time>
      </trkpt>
      <trkpt lat="44.44771" lon="1.62609">
        <ele>295.74</ele>
        <time>2025-01-05T13:54:46Z</time>
      </trkpt>
      <trkpt lat="44.44776" lon="1.62622">
        <ele>296.22</ele>
        <time>2025-01-05T13:54:56Z</time>
      </trkpt>
      <trkpt lat="44.44781" lon="1.62636">
        <ele>296.7</ele>
        <time>2025-01-05T13:55:05Z</time>
      </trkpt>
      <trkpt lat="44.44788" lon="1.62647">
        <ele>297.67</ele>
        <time>2025-01-05T13:55:15Z</time>
      </trkpt>
      <trkpt lat="44.44792" lon="1.62659">
        <ele>298.15</ele>
        <time>2025-01-05T13:55:24Z</time>
      </trkpt>
      <trkpt lat="44.44797" lon="1.62671">
        <ele>299.11</ele>
        <time>2025-01-05T13:55:34Z</time>
      </trkpt>
      <trkpt lat="44.44803" lon="1.62682">
        <ele>299.59</ele>
        <time>2025-01-05T13:55:44Z</time>
      </trkpt>
      <trkpt lat="44.44808" lon="1.62694">
        <ele>300.55</ele>
        <time>2025-01-05T13:55:54Z</time>
      </trkpt>
      <trkpt lat="44.44813" lon="1.62705">
        <ele>301.03</ele>
        <time>2025-01-05T13:56:04Z</time>
      </trkpt>
      <trkpt lat="44.44819" lon="1.62716">
        <ele>301.99</ele>
        <time>2025-01-05T13:56:14Z</time>
      </trkpt>
      <trkpt lat="44.44825" lon="1.62727">
        <ele>302.95</ele>
        <time>2025-01-05T13:56:25Z</time>
      </trkpt>
      <trkpt lat="44.44831" lon="1.62739">
        <ele>304.39</ele>
        <time>2025-01-05T13:56:36Z</time>
      </trkpt>
      <trkpt lat="44.44839" lon="1.62751">
        <ele>304.88</ele>
        <time>2025-01-05T13:56:48Z</time>
      </trkpt>
      <trkpt lat="44.44848" lon="1.62763">
        <ele>305.84</ele>
        <time>2025-01-05T13:57:01Z</time>
      </trkpt>
      <trkpt lat="44.44857" lon="1.62772">
        <ele>306.8</ele>
        <time>2025-01-05T13:57:12Z</time>
      </trkpt>
      <trkpt lat="44.44866" lon="1.62782">
        <ele>307.76</ele>
        <time>2025-01-05T13:57:23Z</time>
      </trkpt>
      <trkpt lat="44.44874" lon="1.62791">
        <ele>308.24</ele>
        <time>2025-01-05T13:57:33Z</time>
      </trkpt>
      <trkpt lat="44.44882" lon="1.628">
        <ele>308.72</ele>
        <time>2025-01-05T13:57:43Z</time>
      </trkpt>
      <trkpt lat="44.44891" lon="1.62808">
        <ele>309.2</ele>
        <time>2025-01-05T13:57:54Z</time>
      </trkpt>
      <trkpt lat="44.44899" lon="1.62818">
        <ele>309.68</ele>
        <time>2025-01-05T13:58:04Z</time>
      </trkpt>
      <trkpt lat="44.44908" lon="1.62825">
        <ele>309.68</ele>
        <time>2025-01-05T13:58:11Z</time>
      </trkpt>
      <trkpt lat="44.44916" lon="1.62832">
        <ele>310.16</ele>
        <time>2025-01-05T13:58:20Z</time>
      </trkpt>
      <trkpt lat="44.44925" lon="1.62839">
        <ele>310.16</ele>
        <time>2025-01-05T13:58:32Z</time>
      </trkpt>
      <trkpt lat="44.44932" lon="1.6285">
        <ele>310.16</ele>
        <time>2025-01-05T13:59:22Z</time>
      </trkpt>
      <trkpt lat="44.4493" lon="1.62855">
        <ele>308.24</ele>
        <time>2025-01-05T14:05:44Z</time>
      </trkpt>
      <trkpt lat="44.44928" lon="1.62864">
        <ele>308.24</ele>
        <time>2025-01-05T14:06:08Z</time>
      </trkpt>
      <trkpt lat="44.44919" lon="1.62876">
        <ele>307.28</ele>
        <time>2025-01-05T14:06:20Z</time>
      </trkpt>
      <trkpt lat="44.4491" lon="1.62884">
        <ele>306.8</ele>
        <time>2025-01-05T14:06:30Z</time>
      </trkpt>
      <trkpt lat="44.44901" lon="1.62894">
        <ele>306.32</ele>
        <time>2025-01-05T14:06:39Z</time>
      </trkpt>
      <trkpt lat="44.44892" lon="1.62903">
        <ele>305.84</ele>
        <time>2025-01-05T14:06:48Z</time>
      </trkpt>
      <trkpt lat="44.44885" lon="1.62913">
        <ele>305.36</ele>
        <time>2025-01-05T14:06:57Z</time>
      </trkpt>
      <trkpt lat="44.44876" lon="1.62924">
        <ele>305.36</ele>
        <time>2025-01-05T14:07:08Z</time>
      </trkpt>
      <trkpt lat="44.44867" lon="1.62934">
        <ele>304.88</ele>
        <time>2025-01-05T14:07:18Z</time>
      </trkpt>
      <trkpt lat="44.44858" lon="1.62943">
        <ele>303.91</ele>
        <time>2025-01-05T14:07:29Z</time>
      </trkpt>
      <trkpt lat="44.44846" lon="1.62952">
        <ele>303.43</ele>
        <time>2025-01-05T14:07:40Z</time>
      </trkpt>
      <trkpt lat="44.44834" lon="1.62957">
        <ele>302.47</ele>
        <time>2025-01-05T14:07:52Z</time>
      </trkpt>
      <trkpt lat="44.4482" lon="1.62951">
        <ele>300.55</ele>
        <time>2025-01-05T14:08:05Z</time>
      </trkpt>
      <trkpt lat="44.44805" lon="1.62943">
        <ele>299.11</ele>
        <time>2025-01-05T14:08:17Z</time>
      </trkpt>
      <trkpt lat="44.4479" lon="1.6294">
        <ele>297.18</ele>
        <time>2025-01-05T14:08:28Z</time>
      </trkpt>
      <trkpt lat="44.44778" lon="1.62939">
        <ele>296.22</ele>
        <time>2025-01-05T14:08:37Z</time>
      </trkpt>
      <trkpt lat="44.4477" lon="1.62948">
        <ele>295.26</ele>
        <time>2025-01-05T14:08:48Z</time>
      </trkpt>
      <trkpt lat="44.44764" lon="1.62962">
        <ele>294.3</ele>
        <time>2025-01-05T14:08:57Z</time>
      </trkpt>
      <trkpt lat="44.4476" lon="1.62976">
        <ele>292.86</ele>
        <time>2025-01-05T14:09:06Z</time>
      </trkpt>
      <trkpt lat="44.44755" lon="1.62988">
        <ele>292.38</ele>
        <time>2025-01-05T14:09:14Z</time>
      </trkpt>
      <trkpt lat="44.44751" lon="1.63">
        <ele>291.9</ele>
        <time>2025-01-05T14:09:22Z</time>
      </trkpt>
      <trkpt lat="44.44747" lon="1.63013">
        <ele>291.42</ele>
        <time>2025-01-05T14:09:30Z</time>
      </trkpt>
      <trkpt lat="44.44741" lon="1.63025">
        <ele>291.42</ele>
        <time>2025-01-05T14:09:39Z</time>
      </trkpt>
      <trkpt lat="44.44733" lon="1.63038">
        <ele>291.42</ele>
        <time>2025-01-05T14:09:48Z</time>
      </trkpt>
      <trkpt lat="44.44725" lon="1.63048">
        <ele>292.86</ele>
        <time>2025-01-05T14:09:59Z</time>
      </trkpt>
      <trkpt lat="44.44716" lon="1.6306">
        <ele>294.3</ele>
        <time>2025-01-05T14:10:13Z</time>
      </trkpt>
      <trkpt lat="44.44706" lon="1.63081">
        <ele>296.7</ele>
        <time>2025-01-05T14:10:34Z</time>
      </trkpt>
      <trkpt lat="44.44699" lon="1.631">
        <ele>298.63</ele>
        <time>2025-01-05T14:10:54Z</time>
      </trkpt>
      <trkpt lat="44.44694" lon="1.63122">
        <ele>300.55</ele>
        <time>2025-01-05T14:11:09Z</time>
      </trkpt>
      <trkpt lat="44.44691" lon="1.63138">
        <ele>301.99</ele>
        <time>2025-01-05T14:11:25Z</time>
      </trkpt>
      <trkpt lat="44.44688" lon="1.63157">
        <ele>303.91</ele>
        <time>2025-01-05T14:11:40Z</time>
      </trkpt>
      <trkpt lat="44.44684" lon="1.63175">
        <ele>305.36</ele>
        <time>2025-01-05T14:11:57Z</time>
      </trkpt>
      <trkpt lat="44.44678" lon="1.63192">
        <ele>306.8</ele>
        <time>2025-01-05T14:12:12Z</time>
      </trkpt>
      <trkpt lat="44.4467" lon="1.63204">
        <ele>307.76</ele>
        <time>2025-01-05T14:12:24Z</time>
      </trkpt>
      <trkpt lat="44.44663" lon="1.632">
        <ele>308.24</ele>
        <time>2025-01-05T14:12:36Z</time>
      </trkpt>
      <trkpt lat="44.44657" lon="1.63212">
        <ele>309.2</ele>
        <time>2025-01-05T14:12:50Z</time>
      </trkpt>
      <trkpt lat="44.4465" lon="1.63221">
        <ele>310.16</ele>
        <time>2025-01-05T14:13:02Z</time>
      </trkpt>
      <trkpt lat="44.44641" lon="1.6323">
        <ele>311.12</ele>
        <time>2025-01-05T14:13:14Z</time>
      </trkpt>
      <trkpt lat="44.4463" lon="1.63237">
        <ele>311.6</ele>
        <time>2025-01-05T14:13:27Z</time>
      </trkpt>
      <trkpt lat="44.44616" lon="1.63244">
        <ele>313.05</ele>
        <time>2025-01-05T14:13:41Z</time>
      </trkpt>
      <trkpt lat="44.44605" lon="1.63249">
        <ele>314.01</ele>
        <time>2025-01-05T14:13:54Z</time>
      </trkpt>
      <trkpt lat="44.44596" lon="1.63251">
        <ele>314.49</ele>
        <time>2025-01-05T14:14:05Z</time>
      </trkpt>
      <trkpt lat="44.44588" lon="1.63255">
        <ele>315.45</ele>
        <time>2025-01-05T14:14:16Z</time>
      </trkpt>
      <trkpt lat="44.44578" lon="1.6326">
        <ele>316.89</ele>
        <time>2025-01-05T14:14:29Z</time>
      </trkpt>
      <trkpt lat="44.44568" lon="1.63266">
        <ele>319.3</ele>
        <time>2025-01-05T14:14:42Z</time>
      </trkpt>
      <trkpt lat="44.44559" lon="1.63271">
        <ele>321.22</ele>
        <time>2025-01-05T14:14:55Z</time>
      </trkpt>
      <trkpt lat="44.44548" lon="1.63277">
        <ele>323.14</ele>
        <time>2025-01-05T14:15:09Z</time>
      </trkpt>
      <trkpt lat="44.44535" lon="1.63286">
        <ele>325.06</ele>
        <time>2025-01-05T14:15:25Z</time>
      </trkpt>
      <trkpt lat="44.44523" lon="1.63296">
        <ele>326.99</ele>
        <time>2025-01-05T14:15:40Z</time>
      </trkpt>
      <trkpt lat="44.44513" lon="1.63291">
        <ele>327.47</ele>
        <time>2025-01-05T14:15:56Z</time>
      </trkpt>
      <trkpt lat="44.44504" lon="1.63282">
        <ele>327.95</ele>
        <time>2025-01-05T14:16:08Z</time>
      </trkpt>
      <trkpt lat="44.44496" lon="1.63272">
        <ele>328.43</ele>
        <time>2025-01-05T14:16:20Z</time>
      </trkpt>
      <trkpt lat="44.44489" lon="1.63262">
        <ele>328.43</ele>
        <time>2025-01-05T14:16:30Z</time>
      </trkpt>
      <trkpt lat="44.4448" lon="1.6325">
        <ele>328.43</ele>
        <time>2025-01-05T14:16:41Z</time>
      </trkpt>
      <trkpt lat="44.44467" lon="1.63239">
        <ele>328.43</ele>
        <time>2025-01-05T14:17:15Z</time>
      </trkpt>
      <trkpt lat="44.44456" lon="1.63231">
        <ele>326.99</ele>
        <time>2025-01-05T14:17:26Z</time>
      </trkpt>
      <trkpt lat="44.44445" lon="1.63219">
        <ele>326.5</ele>
        <time>2025-01-05T14:17:39Z</time>
      </trkpt>
      <trkpt lat="44.44435" lon="1.63208">
        <ele>326.5</ele>
        <time>2025-01-05T14:17:51Z</time>
      </trkpt>
      <trkpt lat="44.4442" lon="1.632">
        <ele>326.5</ele>
        <time>2025-01-05T14:18:06Z</time>
      </trkpt>
      <trkpt lat="44.44402" lon="1.63194">
        <ele>328.43</ele>
        <time>2025-01-05T14:18:23Z</time>
      </trkpt>
      <trkpt lat="44.44388" lon="1.63188">
        <ele>328.91</ele>
        <time>2025-01-05T14:18:37Z</time>
      </trkpt>
      <trkpt lat="44.44372" lon="1.63182">
        <ele>329.87</ele>
        <time>2025-01-05T14:18:54Z</time>
      </trkpt>
      <trkpt lat="44.44358" lon="1.63178">
        <ele>329.87</ele>
        <time>2025-01-05T14:19:07Z</time>
      </trkpt>
      <trkpt lat="44.44346" lon="1.63176">
        <ele>329.87</ele>
        <time>2025-01-05T14:19:19Z</time>
      </trkpt>
      <trkpt lat="44.4433" lon="1.63175">
        <ele>329.87</ele>
        <time>2025-01-05T14:19:32Z</time>
      </trkpt>
      <trkpt lat="44.44313" lon="1.6318">
        <ele>329.39</ele>
        <time>2025-01-05T14:19:53Z</time>
      </trkpt>
      <trkpt lat="44.44298" lon="1.63172">
        <ele>326.99</ele>
        <time>2025-01-05T14:20:19Z</time>
      </trkpt>
      <trkpt lat="44.44308" lon="1.63173">
        <ele>328.43</ele>
        <time>2025-01-05T14:20:49Z</time>
      </trkpt>
      <trkpt lat="44.44318" lon="1.63185">
        <ele>329.39</ele>
        <time>2025-01-05T14:21:05Z</time>
      </trkpt>
      <trkpt lat="44.44325" lon="1.63183">
        <ele>329.87</ele>
        <time>2025-01-05T14:21:23Z</time>
      </trkpt>
      <trkpt lat="44.44335" lon="1.63172">
        <ele>329.87</ele>
        <time>2025-01-05T14:21:39Z</time>
      </trkpt>
      <trkpt lat="44.44345" lon="1.63171">
        <ele>330.35</ele>
        <time>2025-01-05T14:22:30Z</time>
      </trkpt>
      <trkpt lat="44.44346" lon="1.63177">
        <ele>330.83</ele>
        <time>2025-01-05T14:23:06Z</time>
      </trkpt>
      <trkpt lat="44.44344" lon="1.63189">
        <ele>332.27</ele>
        <time>2025-01-05T14:23:21Z</time>
      </trkpt>
      <trkpt lat="44.44344" lon="1.63203">
        <ele>333.23</ele>
        <time>2025-01-05T14:23:34Z</time>
      </trkpt>
      <trkpt lat="44.44337" lon="1.63218">
        <ele>333.23</ele>
        <time>2025-01-05T14:23:50Z</time>
      </trkpt>
      <trkpt lat="44.44328" lon="1.6323">
        <ele>331.79</ele>
        <time>2025-01-05T14:24:06Z</time>
      </trkpt>
      <trkpt lat="44.44322" lon="1.63246">
        <ele>331.79</ele>
        <time>2025-01-05T14:24:20Z</time>
      </trkpt>
      <trkpt lat="44.4432" lon="1.63266">
        <ele>333.23</ele>
        <time>2025-01-05T14:24:36Z</time>
      </trkpt>
      <trkpt lat="44.44303" lon="1.63283">
        <ele>334.2</ele>
        <time>2025-01-05T14:27:47Z</time>
      </trkpt>
      <trkpt lat="44.44292" lon="1.63292">
        <ele>332.75</ele>
        <time>2025-01-05T14:28:00Z</time>
      </trkpt>
      <trkpt lat="44.44282" lon="1.63294">
        <ele>331.79</ele>
        <time>2025-01-05T14:28:16Z</time>
      </trkpt>
      <trkpt lat="44.44271" lon="1.63288">
        <ele>329.87</ele>
        <time>2025-01-05T14:28:33Z</time>
      </trkpt>
      <trkpt lat="44.44261" lon="1.63281">
        <ele>327.47</ele>
        <time>2025-01-05T14:28:46Z</time>
      </trkpt>
      <trkpt lat="44.44251" lon="1.63281">
        <ele>326.02</ele>
        <time>2025-01-05T14:28:56Z</time>
      </trkpt>
      <trkpt lat="44.44243" lon="1.63278">
        <ele>324.1</ele>
        <time>2025-01-05T14:29:08Z</time>
      </trkpt>
      <trkpt lat="44.44234" lon="1.63272">
        <ele>322.66</ele>
        <time>2025-01-05T14:29:19Z</time>
      </trkpt>
      <trkpt lat="44.44229" lon="1.63259">
        <ele>321.22</ele>
        <time>2025-01-05T14:30:12Z</time>
      </trkpt>
      <trkpt lat="44.44222" lon="1.63271">
        <ele>319.78</ele>
        <time>2025-01-05T14:32:02Z</time>
      </trkpt>
      <trkpt lat="44.44212" lon="1.63286">
        <ele>317.85</ele>
        <time>2025-01-05T14:32:20Z</time>
      </trkpt>
      <trkpt lat="44.44202" lon="1.63299">
        <ele>315.45</ele>
        <time>2025-01-05T14:32:34Z</time>
      </trkpt>
      <trkpt lat="44.44193" lon="1.63311">
        <ele>313.05</ele>
        <time>2025-01-05T14:32:46Z</time>
      </trkpt>
      <trkpt lat="44.44184" lon="1.63324">
        <ele>311.12</ele>
        <time>2025-01-05T14:32:58Z</time>
      </trkpt>
      <trkpt lat="44.44176" lon="1.63338">
        <ele>310.16</ele>
        <time>2025-01-05T14:33:12Z</time>
      </trkpt>
      <trkpt lat="44.44168" lon="1.63353">
        <ele>309.2</ele>
        <time>2025-01-05T14:33:22Z</time>
      </trkpt>
      <trkpt lat="44.44158" lon="1.63365">
        <ele>308.24</ele>
        <time>2025-01-05T14:33:35Z</time>
      </trkpt>
      <trkpt lat="44.44144" lon="1.63383">
        <ele>307.28</ele>
        <time>2025-01-05T14:33:51Z</time>
      </trkpt>
      <trkpt lat="44.44135" lon="1.63395">
        <ele>306.8</ele>
        <time>2025-01-05T14:34:00Z</time>
      </trkpt>
      <trkpt lat="44.44124" lon="1.63404">
        <ele>305.84</ele>
        <time>2025-01-05T14:34:12Z</time>
      </trkpt>
      <trkpt lat="44.44118" lon="1.63419">
        <ele>303.91</ele>
        <time>2025-01-05T14:34:27Z</time>
      </trkpt>
      <trkpt lat="44.44111" lon="1.63433">
        <ele>302.95</ele>
        <time>2025-01-05T14:34:40Z</time>
      </trkpt>
      <trkpt lat="44.44106" lon="1.63449">
        <ele>301.51</ele>
        <time>2025-01-05T14:34:50Z</time>
      </trkpt>
      <trkpt lat="44.44101" lon="1.63464">
        <ele>301.03</ele>
        <time>2025-01-05T14:34:59Z</time>
      </trkpt>
      <trkpt lat="44.4409" lon="1.63481">
        <ele>299.59</ele>
        <time>2025-01-05T14:35:11Z</time>
      </trkpt>
      <trkpt lat="44.44084" lon="1.63495">
        <ele>298.63</ele>
        <time>2025-01-05T14:35:22Z</time>
      </trkpt>
      <trkpt lat="44.44077" lon="1.63512">
        <ele>297.67</ele>
        <time>2025-01-05T14:35:39Z</time>
      </trkpt>
      <trkpt lat="44.44068" lon="1.63528">
        <ele>296.7</ele>
        <time>2025-01-05T14:35:52Z</time>
      </trkpt>
      <trkpt lat="44.44058" lon="1.63529">
        <ele>296.22</ele>
        <time>2025-01-05T14:36:02Z</time>
      </trkpt>
      <trkpt lat="44.44048" lon="1.63527">
        <ele>295.26</ele>
        <time>2025-01-05T14:36:10Z</time>
      </trkpt>
      <trkpt lat="44.44039" lon="1.63522">
        <ele>295.26</ele>
        <time>2025-01-05T14:36:18Z</time>
      </trkpt>
      <trkpt lat="44.44028" lon="1.63515">
        <ele>294.3</ele>
        <time>2025-01-05T14:36:37Z</time>
      </trkpt>
      <trkpt lat="44.44019" lon="1.63511">
        <ele>293.82</ele>
        <time>2025-01-05T14:36:45Z</time>
      </trkpt>
      <trkpt lat="44.44009" lon="1.63505">
        <ele>293.82</ele>
        <time>2025-01-05T14:36:53Z</time>
      </trkpt>
      <trkpt lat="44.44001" lon="1.63498">
        <ele>293.82</ele>
        <time>2025-01-05T14:37:00Z</time>
      </trkpt>
      <trkpt lat="44.43993" lon="1.63492">
        <ele>294.3</ele>
        <time>2025-01-05T14:37:07Z</time>
      </trkpt>
      <trkpt lat="44.43984" lon="1.63486">
        <ele>294.3</ele>
        <time>2025-01-05T14:37:15Z</time>
      </trkpt>
      <trkpt lat="44.43975" lon="1.6348">
        <ele>294.3</ele>
        <time>2025-01-05T14:37:23Z</time>
      </trkpt>
      <trkpt lat="44.43966" lon="1.63475">
        <ele>295.26</ele>
        <time>2025-01-05T14:37:31Z</time>
      </trkpt>
      <trkpt lat="44.43954" lon="1.63467">
        <ele>295.74</ele>
        <time>2025-01-05T14:37:44Z</time>
      </trkpt>
      <trkpt lat="44.43942" lon="1.63463">
        <ele>296.22</ele>
        <time>2025-01-05T14:37:55Z</time>
      </trkpt>
      <trkpt lat="44.43929" lon="1.63462">
        <ele>297.18</ele>
        <time>2025-01-05T14:38:06Z</time>
      </trkpt>
      <trkpt lat="44.43917" lon="1.63464">
        <ele>297.67</ele>
        <time>2025-01-05T14:38:16Z</time>
      </trkpt>
      <trkpt lat="44.43906" lon="1.63466">
        <ele>297.67</ele>
        <time>2025-01-05T14:38:25Z</time>
      </trkpt>
      <trkpt lat="44.43897" lon="1.6347">
        <ele>298.15</ele>
        <time>2025-01-05T14:38:33Z</time>
      </trkpt>
      <trkpt lat="44.43887" lon="1.63477">
        <ele>298.15</ele>
        <time>2025-01-05T14:38:42Z</time>
      </trkpt>
      <trkpt lat="44.43878" lon="1.63485">
        <ele>298.15</ele>
        <time>2025-01-05T14:38:50Z</time>
      </trkpt>
      <trkpt lat="44.43869" lon="1.6349">
        <ele>298.15</ele>
        <time>2025-01-05T14:38:58Z</time>
      </trkpt>
      <trkpt lat="44.43859" lon="1.63494">
        <ele>298.15</ele>
        <time>2025-01-05T14:39:06Z</time>
      </trkpt>
      <trkpt lat="44.43848" lon="1.635">
        <ele>298.15</ele>
        <time>2025-01-05T14:39:15Z</time>
      </trkpt>
      <trkpt lat="44.43835" lon="1.63509">
        <ele>298.15</ele>
        <time>2025-01-05T14:39:24Z</time>
      </trkpt>
      <trkpt lat="44.43825" lon="1.63517">
        <ele>298.15</ele>
        <time>2025-01-05T14:39:32Z</time>
      </trkpt>
      <trkpt lat="44.43816" lon="1.63523">
        <ele>298.15</ele>
        <time>2025-01-05T14:39:40Z</time>
      </trkpt>
      <trkpt lat="44.43807" lon="1.63529">
        <ele>298.15</ele>
        <time>2025-01-05T14:39:48Z</time>
      </trkpt>
      <trkpt lat="44.43798" lon="1.63536">
        <ele>298.15</ele>
        <time>2025-01-05T14:39:56Z</time>
      </trkpt>
      <trkpt lat="44.43787" lon="1.63543">
        <ele>298.15</ele>
        <time>2025-01-05T14:40:06Z</time>
      </trkpt>
      <trkpt lat="44.43778" lon="1.63551">
        <ele>298.15</ele>
        <time>2025-01-05T14:40:14Z</time>
      </trkpt>
      <trkpt lat="44.43769" lon="1.63561">
        <ele>298.63</ele>
        <time>2025-01-05T14:40:22Z</time>
      </trkpt>
      <trkpt lat="44.43765" lon="1.63575">
        <ele>298.63</ele>
        <time>2025-01-05T14:40:31Z</time>
      </trkpt>
      <trkpt lat="44.43761" lon="1.63588">
        <ele>299.59</ele>
        <time>2025-01-05T14:40:39Z</time>
      </trkpt>
      <trkpt lat="44.43755" lon="1.636">
        <ele>300.07</ele>
        <time>2025-01-05T14:40:48Z</time>
      </trkpt>
      <trkpt lat="44.43746" lon="1.63611">
        <ele>300.55</ele>
        <time>2025-01-05T14:40:59Z</time>
      </trkpt>
      <trkpt lat="44.43736" lon="1.63619">
        <ele>301.99</ele>
        <time>2025-01-05T14:41:08Z</time>
      </trkpt>
      <trkpt lat="44.43727" lon="1.63625">
        <ele>302.47</ele>
        <time>2025-01-05T14:41:17Z</time>
      </trkpt>
      <trkpt lat="44.43718" lon="1.6363">
        <ele>303.91</ele>
        <time>2025-01-05T14:41:26Z</time>
      </trkpt>
      <trkpt lat="44.43708" lon="1.63636">
        <ele>304.88</ele>
        <time>2025-01-05T14:41:38Z</time>
      </trkpt>
      <trkpt lat="44.43698" lon="1.63639">
        <ele>305.84</ele>
        <time>2025-01-05T14:41:48Z</time>
      </trkpt>
      <trkpt lat="44.43685" lon="1.63641">
        <ele>306.8</ele>
        <time>2025-01-05T14:41:58Z</time>
      </trkpt>
      <trkpt lat="44.43676" lon="1.63639">
        <ele>307.76</ele>
        <time>2025-01-05T14:42:09Z</time>
      </trkpt>
      <trkpt lat="44.43668" lon="1.63633">
        <ele>308.72</ele>
        <time>2025-01-05T14:42:19Z</time>
      </trkpt>
      <trkpt lat="44.43659" lon="1.63626">
        <ele>309.2</ele>
        <time>2025-01-05T14:42:31Z</time>
      </trkpt>
      <trkpt lat="44.43653" lon="1.63615">
        <ele>309.68</ele>
        <time>2025-01-05T14:42:40Z</time>
      </trkpt>
      <trkpt lat="44.43647" lon="1.63601">
        <ele>310.16</ele>
        <time>2025-01-05T14:42:49Z</time>
      </trkpt>
      <trkpt lat="44.43644" lon="1.63588">
        <ele>311.12</ele>
        <time>2025-01-05T14:42:57Z</time>
      </trkpt>
      <trkpt lat="44.43644" lon="1.63575">
        <ele>311.12</ele>
        <time>2025-01-05T14:43:05Z</time>
      </trkpt>
      <trkpt lat="44.43641" lon="1.63562">
        <ele>312.09</ele>
        <time>2025-01-05T14:43:13Z</time>
      </trkpt>
      <trkpt lat="44.43633" lon="1.63554">
        <ele>312.09</ele>
        <time>2025-01-05T14:43:21Z</time>
      </trkpt>
      <trkpt lat="44.43626" lon="1.63547">
        <ele>312.09</ele>
        <time>2025-01-05T14:43:29Z</time>
      </trkpt>
      <trkpt lat="44.43619" lon="1.63539">
        <ele>312.09</ele>
        <time>2025-01-05T14:43:37Z</time>
      </trkpt>
      <trkpt lat="44.43611" lon="1.63531">
        <ele>312.09</ele>
        <time>2025-01-05T14:43:46Z</time>
      </trkpt>
      <trkpt lat="44.43604" lon="1.63521">
        <ele>310.64</ele>
        <time>2025-01-05T14:43:55Z</time>
      </trkpt>
      <trkpt lat="44.43598" lon="1.63511">
        <ele>310.16</ele>
        <time>2025-01-05T14:44:03Z</time>
      </trkpt>
      <trkpt lat="44.43592" lon="1.63497">
        <ele>310.16</ele>
        <time>2025-01-05T14:44:11Z</time>
      </trkpt>
      <trkpt lat="44.43587" lon="1.63484">
        <ele>309.2</ele>
        <time>2025-01-05T14:44:19Z</time>
      </trkpt>
      <trkpt lat="44.43581" lon="1.63469">
        <ele>308.24</ele>
        <time>2025-01-05T14:44:27Z</time>
      </trkpt>
      <trkpt lat="44.43576" lon="1.63456">
        <ele>306.8</ele>
        <time>2025-01-05T14:44:35Z</time>
      </trkpt>
      <trkpt lat="44.43571" lon="1.63445">
        <ele>306.32</ele>
        <time>2025-01-05T14:44:43Z</time>
      </trkpt>
      <trkpt lat="44.43563" lon="1.63435">
        <ele>304.88</ele>
        <time>2025-01-05T14:44:52Z</time>
      </trkpt>
      <trkpt lat="44.43554" lon="1.63431">
        <ele>303.43</ele>
        <time>2025-01-05T14:45:00Z</time>
      </trkpt>
      <trkpt lat="44.43543" lon="1.63436">
        <ele>301.99</ele>
        <time>2025-01-05T14:45:09Z</time>
      </trkpt>
      <trkpt lat="44.43534" lon="1.63447">
        <ele>300.55</ele>
        <time>2025-01-05T14:45:18Z</time>
      </trkpt>
      <trkpt lat="44.43529" lon="1.63458">
        <ele>300.07</ele>
        <time>2025-01-05T14:45:26Z</time>
      </trkpt>
      <trkpt lat="44.43528" lon="1.63472">
        <ele>298.63</ele>
        <time>2025-01-05T14:45:34Z</time>
      </trkpt>
      <trkpt lat="44.43524" lon="1.63486">
        <ele>297.67</ele>
        <time>2025-01-05T14:45:43Z</time>
      </trkpt>
      <trkpt lat="44.43514" lon="1.63489">
        <ele>296.22</ele>
        <time>2025-01-05T14:45:51Z</time>
      </trkpt>
      <trkpt lat="44.43507" lon="1.63478">
        <ele>294.3</ele>
        <time>2025-01-05T14:46:00Z</time>
      </trkpt>
      <trkpt lat="44.43502" lon="1.63466">
        <ele>293.34</ele>
        <time>2025-01-05T14:46:09Z</time>
      </trkpt>
      <trkpt lat="44.43499" lon="1.63453">
        <ele>291.9</ele>
        <time>2025-01-05T14:46:18Z</time>
      </trkpt>
      <trkpt lat="44.43497" lon="1.63437">
        <ele>290.94</ele>
        <time>2025-01-05T14:46:30Z</time>
      </trkpt>
      <trkpt lat="44.43494" lon="1.63418">
        <ele>289.01</ele>
        <time>2025-01-05T14:46:43Z</time>
      </trkpt>
      <trkpt lat="44.43493" lon="1.63401">
        <ele>288.05</ele>
        <time>2025-01-05T14:46:53Z</time>
      </trkpt>
      <trkpt lat="44.43495" lon="1.63385">
        <ele>286.61</ele>
        <time>2025-01-05T14:47:03Z</time>
      </trkpt>
      <trkpt lat="44.43501" lon="1.63371">
        <ele>285.17</ele>
        <time>2025-01-05T14:47:14Z</time>
      </trkpt>
      <trkpt lat="44.43509" lon="1.63358">
        <ele>283.25</ele>
        <time>2025-01-05T14:47:27Z</time>
      </trkpt>
      <trkpt lat="44.43517" lon="1.63345">
        <ele>281.32</ele>
        <time>2025-01-05T14:47:38Z</time>
      </trkpt>
      <trkpt lat="44.43525" lon="1.63332">
        <ele>279.88</ele>
        <time>2025-01-05T14:47:48Z</time>
      </trkpt>
      <trkpt lat="44.43531" lon="1.63319">
        <ele>278.44</ele>
        <time>2025-01-05T14:47:58Z</time>
      </trkpt>
      <trkpt lat="44.43535" lon="1.63303">
        <ele>277.48</ele>
        <time>2025-01-05T14:48:08Z</time>
      </trkpt>
      <trkpt lat="44.43534" lon="1.63288">
        <ele>276.52</ele>
        <time>2025-01-05T14:48:17Z</time>
      </trkpt>
      <trkpt lat="44.43528" lon="1.63275">
        <ele>276.52</ele>
        <time>2025-01-05T14:48:25Z</time>
      </trkpt>
      <trkpt lat="44.43521" lon="1.63266">
        <ele>276.52</ele>
        <time>2025-01-05T14:48:33Z</time>
      </trkpt>
      <trkpt lat="44.43513" lon="1.63262">
        <ele>277.96</ele>
        <time>2025-01-05T14:48:42Z</time>
      </trkpt>
      <trkpt lat="44.43505" lon="1.63256">
        <ele>279.4</ele>
        <time>2025-01-05T14:48:53Z</time>
      </trkpt>
      <trkpt lat="44.43496" lon="1.63248">
        <ele>280.84</ele>
        <time>2025-01-05T14:49:04Z</time>
      </trkpt>
      <trkpt lat="44.43487" lon="1.6324">
        <ele>282.77</ele>
        <time>2025-01-05T14:49:16Z</time>
      </trkpt>
      <trkpt lat="44.43478" lon="1.63231">
        <ele>284.21</ele>
        <time>2025-01-05T14:49:30Z</time>
      </trkpt>
      <trkpt lat="44.4347" lon="1.6322">
        <ele>286.13</ele>
        <time>2025-01-05T14:49:50Z</time>
      </trkpt>
      <trkpt lat="44.43459" lon="1.63211">
        <ele>288.05</ele>
        <time>2025-01-05T14:50:13Z</time>
      </trkpt>
      <trkpt lat="44.43451" lon="1.63206">
        <ele>289.97</ele>
        <time>2025-01-05T14:50:28Z</time>
      </trkpt>
      <trkpt lat="44.43441" lon="1.63196">
        <ele>291.9</ele>
        <time>2025-01-05T14:50:42Z</time>
      </trkpt>
      <trkpt lat="44.43431" lon="1.63186">
        <ele>294.3</ele>
        <time>2025-01-05T14:50:59Z</time>
      </trkpt>
      <trkpt lat="44.43422" lon="1.63176">
        <ele>295.74</ele>
        <time>2025-01-05T14:51:11Z</time>
      </trkpt>
      <trkpt lat="44.43416" lon="1.63165">
        <ele>297.67</ele>
        <time>2025-01-05T14:51:23Z</time>
      </trkpt>
      <trkpt lat="44.43408" lon="1.63156">
        <ele>298.63</ele>
        <time>2025-01-05T14:51:36Z</time>
      </trkpt>
      <trkpt lat="44.43398" lon="1.6315">
        <ele>300.07</ele>
        <time>2025-01-05T14:51:48Z</time>
      </trkpt>
      <trkpt lat="44.43398" lon="1.63161">
        <ele>301.51</ele>
        <time>2025-01-05T14:52:01Z</time>
      </trkpt>
      <trkpt lat="44.43402" lon="1.63175">
        <ele>302.47</ele>
        <time>2025-01-05T14:52:13Z</time>
      </trkpt>
      <trkpt lat="44.43403" lon="1.63191">
        <ele>302.95</ele>
        <time>2025-01-05T14:52:26Z</time>
      </trkpt>
      <trkpt lat="44.43398" lon="1.63206">
        <ele>303.91</ele>
        <time>2025-01-05T14:52:39Z</time>
      </trkpt>
      <trkpt lat="44.43397" lon="1.63223">
        <ele>304.39</ele>
        <time>2025-01-05T14:52:50Z</time>
      </trkpt>
      <trkpt lat="44.43398" lon="1.63239">
        <ele>304.39</ele>
        <time>2025-01-05T14:53:00Z</time>
      </trkpt>
      <trkpt lat="44.43389" lon="1.63245">
        <ele>304.39</ele>
        <time>2025-01-05T14:53:12Z</time>
      </trkpt>
      <trkpt lat="44.43379" lon="1.63251">
        <ele>304.88</ele>
        <time>2025-01-05T14:53:24Z</time>
      </trkpt>
      <trkpt lat="44.43365" lon="1.63258">
        <ele>305.84</ele>
        <time>2025-01-05T14:53:37Z</time>
      </trkpt>
      <trkpt lat="44.43351" lon="1.63259">
        <ele>306.8</ele>
        <time>2025-01-05T14:53:51Z</time>
      </trkpt>
      <trkpt lat="44.43343" lon="1.63267">
        <ele>305.36</ele>
        <time>2025-01-05T14:54:03Z</time>
      </trkpt>
      <trkpt lat="44.43333" lon="1.63278">
        <ele>304.39</ele>
        <time>2025-01-05T14:54:14Z</time>
      </trkpt>
      <trkpt lat="44.43322" lon="1.63287">
        <ele>304.39</ele>
        <time>2025-01-05T14:54:26Z</time>
      </trkpt>
      <trkpt lat="44.43312" lon="1.63294">
        <ele>304.88</ele>
        <time>2025-01-05T14:54:44Z</time>
      </trkpt>
      <trkpt lat="44.43302" lon="1.63303">
        <ele>304.88</ele>
        <time>2025-01-05T14:54:55Z</time>
      </trkpt>
      <trkpt lat="44.43292" lon="1.63307">
        <ele>306.32</ele>
        <time>2025-01-05T14:55:18Z</time>
      </trkpt>
      <trkpt lat="44.43283" lon="1.63317">
        <ele>307.28</ele>
        <time>2025-01-05T14:55:44Z</time>
      </trkpt>
      <trkpt lat="44.43287" lon="1.63314">
        <ele>307.76</ele>
        <time>2025-01-05T14:56:04Z</time>
      </trkpt>
      <trkpt lat="44.4329" lon="1.63313">
        <ele>306.8</ele>
        <time>2025-01-05T14:57:02Z</time>
      </trkpt>
      <trkpt lat="44.43279" lon="1.63317">
        <ele>307.76</ele>
        <time>2025-01-05T14:57:13Z</time>
      </trkpt>
      <trkpt lat="44.43267" lon="1.63318">
        <ele>309.68</ele>
        <time>2025-01-05T14:57:26Z</time>
      </trkpt>
      <trkpt lat="44.43259" lon="1.63309">
        <ele>310.64</ele>
        <time>2025-01-05T14:57:39Z</time>
      </trkpt>
      <trkpt lat="44.43253" lon="1.63295">
        <ele>311.12</ele>
        <time>2025-01-05T14:57:50Z</time>
      </trkpt>
      <trkpt lat="44.4325" lon="1.63281">
        <ele>312.09</ele>
        <time>2025-01-05T14:58:02Z</time>
      </trkpt>
      <trkpt lat="44.43247" lon="1.63268">
        <ele>313.5</ele>
        <time>2025-01-05T14:58:14Z</time>
      </trkpt>
      <trkpt lat="44.43247" lon="1.63253">
        <ele>311.8</ele>
        <time>2025-01-05T14:58:25Z</time>
      </trkpt>
      <trkpt lat="44.43248" lon="1.63238">
        <ele>310.9</ele>
        <time>2025-01-05T14:58:36Z</time>
      </trkpt>
      <trkpt lat="44.43254" lon="1.63227">
        <ele>309.4</ele>
      </trkpt>
      <trkpt lat="44.43256" lon="1.63214">
        <ele>307.9</ele>
        <time>2025-01-05T14:58:58Z</time>
      </trkpt>
      <trkpt lat="44.43256" lon="1.63206">
        <ele>307.2</ele>
      </trkpt>
      <trkpt lat="44.43257" lon="1.63204">
        <ele>306.7</ele>
      </trkpt>
      <trkpt lat="44.43261" lon="1.63203">
        <ele>305.8</ele>
        <time>2025-01-05T14:59:17Z</time>
      </trkpt>
      <trkpt lat="44.43268" lon="1.63198">
        <ele>302.47</ele>
        <time>2025-01-05T14:59:27Z</time>
      </trkpt>
      <trkpt lat="44.43269" lon="1.63189">
        <ele>301.51</ele>
        <time>2025-01-05T15:00:06Z</time>
      </trkpt>
      <trkpt lat="44.43266" lon="1.63177">
        <ele>300.55</ele>
        <time>2025-01-05T15:00:15Z</time>
      </trkpt>
      <trkpt lat="44.43261" lon="1.63164">
        <ele>300.07</ele>
        <time>2025-01-05T15:00:25Z</time>
      </trkpt>
      <trkpt lat="44.43254" lon="1.63154">
        <ele>298.15</ele>
        <time>2025-01-05T15:00:34Z</time>
      </trkpt>
      <trkpt lat="44.43247" lon="1.63143">
        <ele>297.18</ele>
        <time>2025-01-05T15:00:43Z</time>
      </trkpt>
      <trkpt lat="44.4324" lon="1.63136">
        <ele>295.74</ele>
        <time>2025-01-05T15:00:51Z</time>
      </trkpt>
      <trkpt lat="44.43234" lon="1.63129">
        <ele>296.22</ele>
        <time>2025-01-05T15:01:10Z</time>
      </trkpt>
      <trkpt lat="44.43224" lon="1.63119">
        <ele>295.74</ele>
        <time>2025-01-05T15:01:21Z</time>
      </trkpt>
      <trkpt lat="44.43215" lon="1.63108">
        <ele>294.78</ele>
        <time>2025-01-05T15:01:30Z</time>
      </trkpt>
      <trkpt lat="44.43206" lon="1.63096">
        <ele>293.82</ele>
        <time>2025-01-05T15:01:40Z</time>
      </trkpt>
      <trkpt lat="44.43199" lon="1.63083">
        <ele>292.86</ele>
        <time>2025-01-05T15:01:49Z</time>
      </trkpt>
      <trkpt lat="44.43193" lon="1.63069">
        <ele>292.38</ele>
        <time>2025-01-05T15:01:59Z</time>
      </trkpt>
      <trkpt lat="44.43191" lon="1.63045">
        <ele>289.49</ele>
        <time>2025-01-05T15:02:17Z</time>
      </trkpt>
      <trkpt lat="44.43195" lon="1.63026">
        <ele>288.53</ele>
        <time>2025-01-05T15:02:31Z</time>
      </trkpt>
      <trkpt lat="44.43197" lon="1.63011">
        <ele>288.05</ele>
        <time>2025-01-05T15:02:37Z</time>
      </trkpt>
      <trkpt lat="44.43201" lon="1.62999">
        <ele>288.05</ele>
        <time>2025-01-05T15:02:45Z</time>
      </trkpt>
      <trkpt lat="44.43203" lon="1.62985">
        <ele>286.61</ele>
        <time>2025-01-05T15:02:58Z</time>
      </trkpt>
      <trkpt lat="44.43211" lon="1.62972">
        <ele>285.17</ele>
        <time>2025-01-05T15:03:12Z</time>
      </trkpt>
      <trkpt lat="44.43223" lon="1.62966">
        <ele>284.21</ele>
        <time>2025-01-05T15:03:24Z</time>
      </trkpt>
      <trkpt lat="44.43233" lon="1.62958">
        <ele>283.25</ele>
        <time>2025-01-05T15:03:33Z</time>
      </trkpt>
      <trkpt lat="44.43241" lon="1.62946">
        <ele>281.8</ele>
        <time>2025-01-05T15:03:42Z</time>
      </trkpt>
      <trkpt lat="44.43247" lon="1.62933">
        <ele>280.84</ele>
        <time>2025-01-05T15:03:52Z</time>
      </trkpt>
      <trkpt lat="44.43251" lon="1.6292">
        <ele>280.84</ele>
        <time>2025-01-05T15:04:00Z</time>
      </trkpt>
      <trkpt lat="44.43255" lon="1.62907">
        <ele>279.88</ele>
        <time>2025-01-05T15:04:08Z</time>
      </trkpt>
      <trkpt lat="44.43259" lon="1.62893">
        <ele>278.92</ele>
        <time>2025-01-05T15:04:16Z</time>
      </trkpt>
      <trkpt lat="44.43264" lon="1.62883">
        <ele>278.44</ele>
        <time>2025-01-05T15:04:24Z</time>
      </trkpt>
      <trkpt lat="44.4327" lon="1.62871">
        <ele>277.48</ele>
        <time>2025-01-05T15:04:32Z</time>
      </trkpt>
      <trkpt lat="44.43276" lon="1.62859">
        <ele>276.52</ele>
        <time>2025-01-05T15:04:40Z</time>
      </trkpt>
      <trkpt lat="44.43283" lon="1.62844">
        <ele>275.56</ele>
        <time>2025-01-05T15:04:49Z</time>
      </trkpt>
      <trkpt lat="44.4329" lon="1.62829">
        <ele>274.59</ele>
        <time>2025-01-05T15:04:57Z</time>
      </trkpt>
      <trkpt lat="44.43296" lon="1.62815">
        <ele>273.15</ele>
        <time>2025-01-05T15:05:05Z</time>
      </trkpt>
      <trkpt lat="44.43304" lon="1.62803">
        <ele>272.67</ele>
        <time>2025-01-05T15:05:14Z</time>
      </trkpt>
      <trkpt lat="44.43309" lon="1.6279">
        <ele>270.75</ele>
        <time>2025-01-05T15:05:23Z</time>
      </trkpt>
      <trkpt lat="44.43312" lon="1.62775">
        <ele>268.83</ele>
        <time>2025-01-05T15:05:32Z</time>
      </trkpt>
      <trkpt lat="44.43313" lon="1.62762">
        <ele>268.35</ele>
        <time>2025-01-05T15:05:52Z</time>
      </trkpt>
      <trkpt lat="44.43306" lon="1.62757">
        <ele>268.35</ele>
        <time>2025-01-05T15:06:02Z</time>
      </trkpt>
      <trkpt lat="44.43296" lon="1.62747">
        <ele>268.35</ele>
        <time>2025-01-05T15:06:10Z</time>
      </trkpt>
      <trkpt lat="44.43288" lon="1.62735">
        <ele>267.38</ele>
        <time>2025-01-05T15:06:18Z</time>
      </trkpt>
      <trkpt lat="44.43281" lon="1.62724">
        <ele>266.9</ele>
        <time>2025-01-05T15:06:25Z</time>
      </trkpt>
      <trkpt lat="44.43273" lon="1.62715">
        <ele>266.9</ele>
        <time>2025-01-05T15:06:32Z</time>
      </trkpt>
      <trkpt lat="44.43264" lon="1.62707">
        <ele>266.42</ele>
        <time>2025-01-05T15:06:40Z</time>
      </trkpt>
      <trkpt lat="44.43253" lon="1.62702">
        <ele>266.42</ele>
        <time>2025-01-05T15:06:48Z</time>
      </trkpt>
      <trkpt lat="44.43241" lon="1.62702">
        <ele>265.94</ele>
        <time>2025-01-05T15:06:56Z</time>
      </trkpt>
      <trkpt lat="44.4323" lon="1.62704">
        <ele>265.46</ele>
        <time>2025-01-05T15:07:03Z</time>
      </trkpt>
      <trkpt lat="44.4322" lon="1.62707">
        <ele>264.98</ele>
        <time>2025-01-05T15:07:10Z</time>
      </trkpt>
      <trkpt lat="44.43211" lon="1.62711">
        <ele>264.98</ele>
        <time>2025-01-05T15:07:18Z</time>
      </trkpt>
      <trkpt lat="44.43203" lon="1.6271">
        <ele>264.5</ele>
        <time>2025-01-05T15:07:54Z</time>
      </trkpt>
      <trkpt lat="44.43192" lon="1.62702">
        <ele>264.02</ele>
        <time>2025-01-05T15:08:02Z</time>
      </trkpt>
      <trkpt lat="44.43183" lon="1.62692">
        <ele>264.02</ele>
        <time>2025-01-05T15:08:10Z</time>
      </trkpt>
      <trkpt lat="44.43177" lon="1.62682">
        <ele>264.02</ele>
        <time>2025-01-05T15:08:18Z</time>
      </trkpt>
      <trkpt lat="44.4317" lon="1.62673">
        <ele>264.98</ele>
        <time>2025-01-05T15:08:26Z</time>
      </trkpt>
      <trkpt lat="44.43162" lon="1.62666">
        <ele>265.94</ele>
        <time>2025-01-05T15:08:35Z</time>
      </trkpt>
      <trkpt lat="44.43153" lon="1.6266">
        <ele>266.42</ele>
        <time>2025-01-05T15:08:44Z</time>
      </trkpt>
      <trkpt lat="44.43142" lon="1.62652">
        <ele>267.38</ele>
        <time>2025-01-05T15:08:56Z</time>
      </trkpt>
      <trkpt lat="44.43128" lon="1.6264">
        <ele>268.35</ele>
        <time>2025-01-05T15:09:07Z</time>
      </trkpt>
      <trkpt lat="44.43117" lon="1.62628">
        <ele>268.35</ele>
        <time>2025-01-05T15:09:17Z</time>
      </trkpt>
      <trkpt lat="44.43108" lon="1.62618">
        <ele>268.35</ele>
        <time>2025-01-05T15:09:27Z</time>
      </trkpt>
      <trkpt lat="44.43099" lon="1.62606">
        <ele>268.35</ele>
        <time>2025-01-05T15:09:37Z</time>
      </trkpt>
      <trkpt lat="44.43091" lon="1.62593">
        <ele>268.35</ele>
        <time>2025-01-05T15:09:47Z</time>
      </trkpt>
      <trkpt lat="44.43084" lon="1.62582">
        <ele>266.9</ele>
        <time>2025-01-05T15:09:56Z</time>
      </trkpt>
      <trkpt lat="44.43074" lon="1.62572">
        <ele>266.42</ele>
        <time>2025-01-05T15:10:07Z</time>
      </trkpt>
      <trkpt lat="44.43062" lon="1.62564">
        <ele>265.94</ele>
        <time>2025-01-05T15:10:16Z</time>
      </trkpt>
      <trkpt lat="44.43052" lon="1.62559">
        <ele>265.94</ele>
        <time>2025-01-05T15:10:24Z</time>
      </trkpt>
      <trkpt lat="44.43044" lon="1.62556">
        <ele>265.94</ele>
        <time>2025-01-05T15:10:35Z</time>
      </trkpt>
      <trkpt lat="44.43032" lon="1.62554">
        <ele>265.46</ele>
        <time>2025-01-05T15:11:27Z</time>
      </trkpt>
      <trkpt lat="44.43025" lon="1.62557">
        <ele>265.46</ele>
        <time>2025-01-05T15:11:42Z</time>
      </trkpt>
      <trkpt lat="44.43015" lon="1.62562">
        <ele>265.46</ele>
        <time>2025-01-05T15:11:56Z</time>
      </trkpt>
      <trkpt lat="44.43005" lon="1.6257">
        <ele>265.46</ele>
        <time>2025-01-05T15:12:03Z</time>
      </trkpt>
      <trkpt lat="44.42997" lon="1.62578">
        <ele>264.98</ele>
        <time>2025-01-05T15:12:10Z</time>
      </trkpt>
      <trkpt lat="44.42987" lon="1.62584">
        <ele>264.02</ele>
        <time>2025-01-05T15:12:18Z</time>
      </trkpt>
      <trkpt lat="44.42976" lon="1.62588">
        <ele>263.54</ele>
        <time>2025-01-05T15:12:28Z</time>
      </trkpt>
      <trkpt lat="44.42964" lon="1.62591">
        <ele>262.58</ele>
        <time>2025-01-05T15:12:39Z</time>
      </trkpt>
      <trkpt lat="44.42951" lon="1.62592">
        <ele>262.58</ele>
        <time>2025-01-05T15:12:49Z</time>
      </trkpt>
      <trkpt lat="44.4294" lon="1.62593">
        <ele>262.58</ele>
        <time>2025-01-05T15:12:58Z</time>
      </trkpt>
      <trkpt lat="44.42927" lon="1.62593">
        <ele>262.58</ele>
        <time>2025-01-05T15:13:08Z</time>
      </trkpt>
      <trkpt lat="44.42914" lon="1.62593">
        <ele>262.58</ele>
        <time>2025-01-05T15:13:17Z</time>
      </trkpt>
      <trkpt lat="44.42901" lon="1.62589">
        <ele>261.62</ele>
        <time>2025-01-05T15:13:27Z</time>
      </trkpt>
      <trkpt lat="44.42888" lon="1.62586">
        <ele>261.62</ele>
        <time>2025-01-05T15:13:36Z</time>
      </trkpt>
      <trkpt lat="44.42877" lon="1.62582">
        <ele>261.14</ele>
        <time>2025-01-05T15:13:44Z</time>
      </trkpt>
      <trkpt lat="44.42867" lon="1.62578">
        <ele>261.14</ele>
        <time>2025-01-05T15:13:52Z</time>
      </trkpt>
      <trkpt lat="44.42857" lon="1.62574">
        <ele>260.65</ele>
        <time>2025-01-05T15:14:00Z</time>
      </trkpt>
      <trkpt lat="44.42846" lon="1.6257">
        <ele>260.65</ele>
        <time>2025-01-05T15:14:08Z</time>
      </trkpt>
      <trkpt lat="44.42836" lon="1.62566">
        <ele>260.17</ele>
        <time>2025-01-05T15:14:16Z</time>
      </trkpt>
      <trkpt lat="44.42825" lon="1.62563">
        <ele>259.69</ele>
        <time>2025-01-05T15:14:24Z</time>
      </trkpt>
      <trkpt lat="44.42816" lon="1.62564">
        <ele>259.69</ele>
        <time>2025-01-05T15:14:31Z</time>
      </trkpt>
      <trkpt lat="44.42805" lon="1.62566">
        <ele>259.69</ele>
        <time>2025-01-05T15:14:39Z</time>
      </trkpt>
      <trkpt lat="44.42795" lon="1.62568">
        <ele>259.69</ele>
        <time>2025-01-05T15:14:47Z</time>
      </trkpt>
      <trkpt lat="44.42786" lon="1.6257">
        <ele>259.69</ele>
        <time>2025-01-05T15:14:54Z</time>
      </trkpt>
      <trkpt lat="44.42776" lon="1.62572">
        <ele>259.21</ele>
        <time>2025-01-05T15:15:02Z</time>
      </trkpt>
      <trkpt lat="44.42766" lon="1.62571">
        <ele>259.21</ele>
        <time>2025-01-05T15:15:10Z</time>
      </trkpt>
      <trkpt lat="44.42754" lon="1.62568">
        <ele>259.21</ele>
        <time>2025-01-05T15:15:19Z</time>
      </trkpt>
      <trkpt lat="44.42741" lon="1.62565">
        <ele>259.21</ele>
        <time>2025-01-05T15:15:30Z</time>
      </trkpt>
      <trkpt lat="44.42722" lon="1.62571">
        <ele>259.21</ele>
        <time>2025-01-05T15:15:47Z</time>
      </trkpt>
      <trkpt lat="44.42708" lon="1.62578">
        <ele>259.21</ele>
        <time>2025-01-05T15:16:00Z</time>
      </trkpt>
      <trkpt lat="44.42694" lon="1.62583">
        <ele>259.21</ele>
        <time>2025-01-05T15:16:11Z</time>
      </trkpt>
      <trkpt lat="44.42681" lon="1.62588">
        <ele>258.73</ele>
        <time>2025-01-05T15:16:21Z</time>
      </trkpt>
      <trkpt lat="44.42667" lon="1.62595">
        <ele>258.73</ele>
        <time>2025-01-05T15:16:33Z</time>
      </trkpt>
      <trkpt lat="44.42656" lon="1.62604">
        <ele>258.73</ele>
        <time>2025-01-05T15:16:43Z</time>
      </trkpt>
      <trkpt lat="44.42644" lon="1.62615">
        <ele>258.73</ele>
        <time>2025-01-05T15:16:53Z</time>
      </trkpt>
      <trkpt lat="44.42633" lon="1.62623">
        <ele>258.73</ele>
        <time>2025-01-05T15:17:03Z</time>
      </trkpt>
      <trkpt lat="44.42623" lon="1.62634">
        <ele>258.25</ele>
        <time>2025-01-05T15:17:11Z</time>
      </trkpt>
      <trkpt lat="44.42613" lon="1.62641">
        <ele>257.77</ele>
        <time>2025-01-05T15:17:19Z</time>
      </trkpt>
      <trkpt lat="44.42602" lon="1.62645">
        <ele>257.29</ele>
        <time>2025-01-05T15:17:27Z</time>
      </trkpt>
      <trkpt lat="44.4259" lon="1.62646">
        <ele>256.81</ele>
        <time>2025-01-05T15:17:36Z</time>
      </trkpt>
      <trkpt lat="44.42576" lon="1.62642">
        <ele>256.81</ele>
        <time>2025-01-05T15:17:45Z</time>
      </trkpt>
      <trkpt lat="44.42563" lon="1.62643">
        <ele>256.33</ele>
        <time>2025-01-05T15:17:55Z</time>
      </trkpt>
      <trkpt lat="44.42554" lon="1.62641">
        <ele>255.85</ele>
        <time>2025-01-05T15:18:02Z</time>
      </trkpt>
      <trkpt lat="44.42544" lon="1.6264">
        <ele>255.37</ele>
        <time>2025-01-05T15:18:10Z</time>
      </trkpt>
      <trkpt lat="44.42534" lon="1.6264">
        <ele>254.89</ele>
        <time>2025-01-05T15:18:16Z</time>
      </trkpt>
      <trkpt lat="44.42524" lon="1.62636">
        <ele>254.89</ele>
        <time>2025-01-05T15:18:24Z</time>
      </trkpt>
      <trkpt lat="44.42516" lon="1.62628">
        <ele>254.41</ele>
        <time>2025-01-05T15:18:31Z</time>
      </trkpt>
      <trkpt lat="44.42509" lon="1.62617">
        <ele>254.41</ele>
        <time>2025-01-05T15:18:39Z</time>
      </trkpt>
      <trkpt lat="44.42501" lon="1.62607">
        <ele>254.41</ele>
        <time>2025-01-05T15:18:46Z</time>
      </trkpt>
      <trkpt lat="44.42494" lon="1.626">
        <ele>254.41</ele>
        <time>2025-01-05T15:18:55Z</time>
      </trkpt>
      <trkpt lat="44.4248" lon="1.6259">
        <ele>256.81</ele>
        <time>2025-01-05T15:19:12Z</time>
      </trkpt>
      <trkpt lat="44.42466" lon="1.6258">
        <ele>258.25</ele>
        <time>2025-01-05T15:19:27Z</time>
      </trkpt>
      <trkpt lat="44.42455" lon="1.62572">
        <ele>259.21</ele>
        <time>2025-01-05T15:19:38Z</time>
      </trkpt>
      <trkpt lat="44.42444" lon="1.62563">
        <ele>260.65</ele>
        <time>2025-01-05T15:19:52Z</time>
      </trkpt>
      <trkpt lat="44.42435" lon="1.62552">
        <ele>261.62</ele>
        <time>2025-01-05T15:20:03Z</time>
      </trkpt>
      <trkpt lat="44.42428" lon="1.62541">
        <ele>262.58</ele>
        <time>2025-01-05T15:20:14Z</time>
      </trkpt>
      <trkpt lat="44.4242" lon="1.62528">
        <ele>263.54</ele>
        <time>2025-01-05T15:20:26Z</time>
      </trkpt>
      <trkpt lat="44.42413" lon="1.62515">
        <ele>264.5</ele>
        <time>2025-01-05T15:20:38Z</time>
      </trkpt>
      <trkpt lat="44.42406" lon="1.62502">
        <ele>265.46</ele>
        <time>2025-01-05T15:20:55Z</time>
      </trkpt>
      <trkpt lat="44.42399" lon="1.62491">
        <ele>266.9</ele>
        <time>2025-01-05T15:21:08Z</time>
      </trkpt>
      <trkpt lat="44.42391" lon="1.62478">
        <ele>267.38</ele>
        <time>2025-01-05T15:21:21Z</time>
      </trkpt>
      <trkpt lat="44.42383" lon="1.62466">
        <ele>268.83</ele>
        <time>2025-01-05T15:21:33Z</time>
      </trkpt>
      <trkpt lat="44.42375" lon="1.62457">
        <ele>269.79</ele>
        <time>2025-01-05T15:21:45Z</time>
      </trkpt>
      <trkpt lat="44.42367" lon="1.62449">
        <ele>270.75</ele>
        <time>2025-01-05T15:21:56Z</time>
      </trkpt>
      <trkpt lat="44.42358" lon="1.62443">
        <ele>271.71</ele>
        <time>2025-01-05T15:22:07Z</time>
      </trkpt>
      <trkpt lat="44.42349" lon="1.62437">
        <ele>272.67</ele>
        <time>2025-01-05T15:22:17Z</time>
      </trkpt>
      <trkpt lat="44.42339" lon="1.6243">
        <ele>274.11</ele>
        <time>2025-01-05T15:22:29Z</time>
      </trkpt>
      <trkpt lat="44.42326" lon="1.62423">
        <ele>275.07</ele>
        <time>2025-01-05T15:22:44Z</time>
      </trkpt>
      <trkpt lat="44.42316" lon="1.62416">
        <ele>276.04</ele>
        <time>2025-01-05T15:22:55Z</time>
      </trkpt>
      <trkpt lat="44.42307" lon="1.62407">
        <ele>277</ele>
        <time>2025-01-05T15:23:05Z</time>
      </trkpt>
      <trkpt lat="44.423" lon="1.62399">
        <ele>277.96</ele>
        <time>2025-01-05T15:23:17Z</time>
      </trkpt>
      <trkpt lat="44.42291" lon="1.6239">
        <ele>278.92</ele>
        <time>2025-01-05T15:23:29Z</time>
      </trkpt>
      <trkpt lat="44.42282" lon="1.62382">
        <ele>280.36</ele>
        <time>2025-01-05T15:23:42Z</time>
      </trkpt>
      <trkpt lat="44.42273" lon="1.62374">
        <ele>281.32</ele>
        <time>2025-01-05T15:23:56Z</time>
      </trkpt>
      <trkpt lat="44.42264" lon="1.62364">
        <ele>282.77</ele>
        <time>2025-01-05T15:24:09Z</time>
      </trkpt>
      <trkpt lat="44.42256" lon="1.62355">
        <ele>283.25</ele>
        <time>2025-01-05T15:24:20Z</time>
      </trkpt>
      <trkpt lat="44.42247" lon="1.62346">
        <ele>284.69</ele>
        <time>2025-01-05T15:24:32Z</time>
      </trkpt>
      <trkpt lat="44.42238" lon="1.62336">
        <ele>286.13</ele>
        <time>2025-01-05T15:24:46Z</time>
      </trkpt>
      <trkpt lat="44.42228" lon="1.62326">
        <ele>287.57</ele>
        <time>2025-01-05T15:25:00Z</time>
      </trkpt>
      <trkpt lat="44.42216" lon="1.62315">
        <ele>288.53</ele>
        <time>2025-01-05T15:25:14Z</time>
      </trkpt>
      <trkpt lat="44.42208" lon="1.62302">
        <ele>289.97</ele>
        <time>2025-01-05T15:25:26Z</time>
      </trkpt>
      <trkpt lat="44.42201" lon="1.62289">
        <ele>290.94</ele>
        <time>2025-01-05T15:25:38Z</time>
      </trkpt>
      <trkpt lat="44.42197" lon="1.62275">
        <ele>292.38</ele>
        <time>2025-01-05T15:25:50Z</time>
      </trkpt>
      <trkpt lat="44.42197" lon="1.6226">
        <ele>293.34</ele>
        <time>2025-01-05T15:26:03Z</time>
      </trkpt>
      <trkpt lat="44.42197" lon="1.62244">
        <ele>294.78</ele>
        <time>2025-01-05T15:26:17Z</time>
      </trkpt>
      <trkpt lat="44.42197" lon="1.62227">
        <ele>295.26</ele>
        <time>2025-01-05T15:26:28Z</time>
      </trkpt>
      <trkpt lat="44.42198" lon="1.62213">
        <ele>296.7</ele>
        <time>2025-01-05T15:26:39Z</time>
      </trkpt>
      <trkpt lat="44.42199" lon="1.62199">
        <ele>297.67</ele>
        <time>2025-01-05T15:26:50Z</time>
      </trkpt>
      <trkpt lat="44.422" lon="1.62185">
        <ele>298.63</ele>
        <time>2025-01-05T15:27:01Z</time>
      </trkpt>
      <trkpt lat="44.422" lon="1.62172">
        <ele>299.11</ele>
        <time>2025-01-05T15:27:12Z</time>
      </trkpt>
      <trkpt lat="44.42201" lon="1.62159">
        <ele>300.07</ele>
        <time>2025-01-05T15:27:22Z</time>
      </trkpt>
      <trkpt lat="44.42202" lon="1.62147">
        <ele>300.07</ele>
        <time>2025-01-05T15:27:33Z</time>
      </trkpt>
      <trkpt lat="44.42202" lon="1.62133">
        <ele>301.03</ele>
        <time>2025-01-05T15:27:48Z</time>
      </trkpt>
      <trkpt lat="44.42198" lon="1.62121">
        <ele>301.03</ele>
        <time>2025-01-05T15:28:00Z</time>
      </trkpt>
      <trkpt lat="44.42193" lon="1.62109">
        <ele>301.03</ele>
        <time>2025-01-05T15:28:12Z</time>
      </trkpt>
      <trkpt lat="44.42187" lon="1.62098">
        <ele>301.03</ele>
        <time>2025-01-05T15:28:24Z</time>
      </trkpt>
      <trkpt lat="44.42183" lon="1.62087">
        <ele>300.07</ele>
        <time>2025-01-05T15:28:39Z</time>
      </trkpt>
      <trkpt lat="44.4219" lon="1.62076">
        <ele>299.59</ele>
        <time>2025-01-05T15:29:33Z</time>
      </trkpt>
    </trkseg>
  </trk>
</gpx>